<?xml version="1.0" encoding="UTF-8" standalone="no" ?>
<gpx xmlns="http://www.topografix.com/GPX/1/1" xmlns:xsi="http://www.w3.org/2001/XMLSchema-instance" xsi:schemaLocation="http://www.topografix.com/GPX/1/1 http://www.topografix.com/GPX/1/1/gpx.xsd" version="1.1" creator="VisuGPX - https://www.visugpx.com">
  <metadata>
    <name>Mtp_bailarguet</name>
  </metadata>
  <trk>
    <name><![CDATA[Mtp_bailarguet_1]]></name>
    <trkseg>
      <trkpt lat="43.60963" lon="3.82777">
        <ele>76.376137</ele>
        <time>2021-10-17T07:52:28Z</time>
      </trkpt>
      <trkpt lat="43.61103" lon="3.82848">
        <ele>70.964798</ele>
        <time>2021-10-17T07:52:38Z</time>
      </trkpt>
      <trkpt lat="43.61141" lon="3.82876">
        <ele>66.725426</ele>
        <time>2021-10-17T07:53:08Z</time>
      </trkpt>
      <trkpt lat="43.61184" lon="3.82911">
        <ele>64.32505</ele>
        <time>2021-10-17T07:53:28Z</time>
      </trkpt>
      <trkpt lat="43.61193" lon="3.82975">
        <ele>64.151855</ele>
        <time>2021-10-17T07:53:38Z</time>
      </trkpt>
      <trkpt lat="43.61228" lon="3.82989">
        <ele>64.386314</ele>
        <time>2021-10-17T07:53:48Z</time>
      </trkpt>
      <trkpt lat="43.61271" lon="3.82982">
        <ele>63.656818</ele>
        <time>2021-10-17T07:53:58Z</time>
      </trkpt>
      <trkpt lat="43.61317" lon="3.82977">
        <ele>63.562824</ele>
        <time>2021-10-17T07:54:08Z</time>
      </trkpt>
      <trkpt lat="43.61361" lon="3.82978">
        <ele>64.083168</ele>
        <time>2021-10-17T07:54:18Z</time>
      </trkpt>
      <trkpt lat="43.61396" lon="3.82979">
        <ele>64.920685</ele>
        <time>2021-10-17T07:54:28Z</time>
      </trkpt>
      <trkpt lat="43.61428" lon="3.82983">
        <ele>66.124962</ele>
        <time>2021-10-17T07:54:38Z</time>
      </trkpt>
      <trkpt lat="43.61461" lon="3.82982">
        <ele>67.277565</ele>
        <time>2021-10-17T07:54:48Z</time>
      </trkpt>
      <trkpt lat="43.61464" lon="3.82938">
        <ele>68.022377</ele>
        <time>2021-10-17T07:54:58Z</time>
      </trkpt>
      <trkpt lat="43.61482" lon="3.82932">
        <ele>67.763145</ele>
        <time>2021-10-17T07:55:08Z</time>
      </trkpt>
      <trkpt lat="43.61515" lon="3.82955">
        <ele>68.784294</ele>
        <time>2021-10-17T07:55:18Z</time>
      </trkpt>
      <trkpt lat="43.61552" lon="3.82981">
        <ele>70.131836</ele>
        <time>2021-10-17T07:55:28Z</time>
      </trkpt>
      <trkpt lat="43.61585" lon="3.83006">
        <ele>71.58783</ele>
        <time>2021-10-17T07:55:38Z</time>
      </trkpt>
      <trkpt lat="43.61617" lon="3.83029">
        <ele>72.837479</ele>
        <time>2021-10-17T07:55:48Z</time>
      </trkpt>
      <trkpt lat="43.61651" lon="3.83054">
        <ele>73.781967</ele>
        <time>2021-10-17T07:55:58Z</time>
      </trkpt>
      <trkpt lat="43.6168" lon="3.83082">
        <ele>74.348473</ele>
        <time>2021-10-17T07:56:08Z</time>
      </trkpt>
      <trkpt lat="43.61711" lon="3.83109">
        <ele>74.71891</ele>
        <time>2021-10-17T07:56:18Z</time>
      </trkpt>
      <trkpt lat="43.61742" lon="3.83139">
        <ele>75.148048</ele>
        <time>2021-10-17T07:56:28Z</time>
      </trkpt>
      <trkpt lat="43.61776" lon="3.83162">
        <ele>75.659187</ele>
        <time>2021-10-17T07:56:38Z</time>
      </trkpt>
      <trkpt lat="43.61813" lon="3.83183">
        <ele>76.280128</ele>
        <time>2021-10-17T07:56:48Z</time>
      </trkpt>
      <trkpt lat="43.61853" lon="3.83209">
        <ele>77.208878</ele>
        <time>2021-10-17T07:56:58Z</time>
      </trkpt>
      <trkpt lat="43.61888" lon="3.83234">
        <ele>78.628578</ele>
        <time>2021-10-17T07:57:08Z</time>
      </trkpt>
      <trkpt lat="43.61927" lon="3.83254">
        <ele>79.707191</ele>
        <time>2021-10-17T07:57:18Z</time>
      </trkpt>
      <trkpt lat="43.61967" lon="3.8327">
        <ele>80.843422</ele>
        <time>2021-10-17T07:57:28Z</time>
      </trkpt>
      <trkpt lat="43.62005" lon="3.83295">
        <ele>81.999588</ele>
        <time>2021-10-17T07:57:38Z</time>
      </trkpt>
      <trkpt lat="43.62038" lon="3.83331">
        <ele>82.855553</ele>
        <time>2021-10-17T07:57:48Z</time>
      </trkpt>
      <trkpt lat="43.62071" lon="3.83369">
        <ele>83.083534</ele>
        <time>2021-10-17T07:57:58Z</time>
      </trkpt>
      <trkpt lat="43.62101" lon="3.83406">
        <ele>83.226456</ele>
        <time>2021-10-17T07:58:08Z</time>
      </trkpt>
      <trkpt lat="43.62133" lon="3.83446">
        <ele>83.025246</ele>
        <time>2021-10-17T07:58:18Z</time>
      </trkpt>
      <trkpt lat="43.62164" lon="3.83482">
        <ele>82.499603</ele>
        <time>2021-10-17T07:58:28Z</time>
      </trkpt>
      <trkpt lat="43.62194" lon="3.83519">
        <ele>82.296928</ele>
        <time>2021-10-17T07:58:38Z</time>
      </trkpt>
      <trkpt lat="43.62227" lon="3.83538">
        <ele>82.257973</ele>
        <time>2021-10-17T07:58:48Z</time>
      </trkpt>
      <trkpt lat="43.62241" lon="3.83551">
        <ele>81.980782</ele>
        <time>2021-10-17T07:58:58Z</time>
      </trkpt>
      <trkpt lat="43.62259" lon="3.83543">
        <ele>82.005173</ele>
        <time>2021-10-17T07:59:08Z</time>
      </trkpt>
      <trkpt lat="43.62289" lon="3.83506">
        <ele>80.671875</ele>
        <time>2021-10-17T07:59:18Z</time>
      </trkpt>
      <trkpt lat="43.62322" lon="3.83458">
        <ele>78.523285</ele>
        <time>2021-10-17T07:59:28Z</time>
      </trkpt>
      <trkpt lat="43.6237" lon="3.83448">
        <ele>75.799248</ele>
        <time>2021-10-17T07:59:38Z</time>
      </trkpt>
      <trkpt lat="43.6241" lon="3.83485">
        <ele>75.322731</ele>
        <time>2021-10-17T07:59:48Z</time>
      </trkpt>
      <trkpt lat="43.62444" lon="3.83537">
        <ele>76.870644</ele>
        <time>2021-10-17T07:59:58Z</time>
      </trkpt>
      <trkpt lat="43.62468" lon="3.83609">
        <ele>78.230652</ele>
        <time>2021-10-17T08:00:08Z</time>
      </trkpt>
      <trkpt lat="43.62441" lon="3.83642">
        <ele>79.11097</ele>
        <time>2021-10-17T08:00:18Z</time>
      </trkpt>
      <trkpt lat="43.62411" lon="3.83669">
        <ele>80.514404</ele>
        <time>2021-10-17T08:00:28Z</time>
      </trkpt>
      <trkpt lat="43.62431" lon="3.83717">
        <ele>81.762535</ele>
        <time>2021-10-17T08:00:38Z</time>
      </trkpt>
      <trkpt lat="43.62442" lon="3.83772">
        <ele>80.764763</ele>
        <time>2021-10-17T08:00:48Z</time>
      </trkpt>
      <trkpt lat="43.62476" lon="3.8381">
        <ele>79.770592</ele>
        <time>2021-10-17T08:00:58Z</time>
      </trkpt>
      <trkpt lat="43.62516" lon="3.83845">
        <ele>79.046844</ele>
        <time>2021-10-17T08:01:08Z</time>
      </trkpt>
      <trkpt lat="43.62531" lon="3.83914">
        <ele>79.342552</ele>
        <time>2021-10-17T08:01:18Z</time>
      </trkpt>
      <trkpt lat="43.62522" lon="3.83983">
        <ele>79.876587</ele>
        <time>2021-10-17T08:01:28Z</time>
      </trkpt>
      <trkpt lat="43.62487" lon="3.84067">
        <ele>77.00415</ele>
        <time>2021-10-17T08:01:38Z</time>
      </trkpt>
      <trkpt lat="43.62454" lon="3.84124">
        <ele>71.137268</ele>
        <time>2021-10-17T08:01:48Z</time>
      </trkpt>
      <trkpt lat="43.62403" lon="3.84142">
        <ele>68.081657</ele>
        <time>2021-10-17T08:01:58Z</time>
      </trkpt>
      <trkpt lat="43.62383" lon="3.84177">
        <ele>66.04438</ele>
        <time>2021-10-17T08:02:08Z</time>
      </trkpt>
      <trkpt lat="43.62392" lon="3.8422">
        <ele>65.124352</ele>
        <time>2021-10-17T08:02:18Z</time>
      </trkpt>
      <trkpt lat="43.62379" lon="3.84244">
        <ele>64.445152</ele>
        <time>2021-10-17T08:02:28Z</time>
      </trkpt>
      <trkpt lat="43.6237" lon="3.843">
        <ele>63.296467</ele>
        <time>2021-10-17T08:02:38Z</time>
      </trkpt>
      <trkpt lat="43.62359" lon="3.84353">
        <ele>61.974163</ele>
        <time>2021-10-17T08:02:48Z</time>
      </trkpt>
      <trkpt lat="43.62322" lon="3.84411">
        <ele>61.056263</ele>
        <time>2021-10-17T08:02:58Z</time>
      </trkpt>
      <trkpt lat="43.62289" lon="3.84464">
        <ele>59.91925</ele>
        <time>2021-10-17T08:03:08Z</time>
      </trkpt>
      <trkpt lat="43.62261" lon="3.84508">
        <ele>59.268879</ele>
        <time>2021-10-17T08:03:18Z</time>
      </trkpt>
      <trkpt lat="43.6223" lon="3.8456">
        <ele>58.97678</ele>
        <time>2021-10-17T08:03:28Z</time>
      </trkpt>
      <trkpt lat="43.6222" lon="3.84625">
        <ele>58.522739</ele>
        <time>2021-10-17T08:03:38Z</time>
      </trkpt>
      <trkpt lat="43.62241" lon="3.84658">
        <ele>58.544922</ele>
        <time>2021-10-17T08:03:48Z</time>
      </trkpt>
      <trkpt lat="43.62256" lon="3.84686">
        <ele>58.826859</ele>
        <time>2021-10-17T08:03:58Z</time>
      </trkpt>
      <trkpt lat="43.62269" lon="3.84719">
        <ele>59.035702</ele>
        <time>2021-10-17T08:04:08Z</time>
      </trkpt>
      <trkpt lat="43.6228" lon="3.84753">
        <ele>59.223713</ele>
        <time>2021-10-17T08:04:18Z</time>
      </trkpt>
      <trkpt lat="43.6228" lon="3.84796">
        <ele>59.318279</ele>
        <time>2021-10-17T08:04:28Z</time>
      </trkpt>
      <trkpt lat="43.62278" lon="3.84837">
        <ele>59.300373</ele>
        <time>2021-10-17T08:04:38Z</time>
      </trkpt>
      <trkpt lat="43.62278" lon="3.84883">
        <ele>59.281738</ele>
        <time>2021-10-17T08:04:48Z</time>
      </trkpt>
      <trkpt lat="43.62278" lon="3.84883">
        <ele>59.281738</ele>
        <time>2021-10-17T08:07:08Z</time>
      </trkpt>
      <trkpt lat="43.62283" lon="3.84998">
        <ele>59.283039</ele>
        <time>2021-10-17T08:07:28Z</time>
      </trkpt>
      <trkpt lat="43.62295" lon="3.85039">
        <ele>59.202808</ele>
        <time>2021-10-17T08:07:38Z</time>
      </trkpt>
      <trkpt lat="43.6233" lon="3.85069">
        <ele>59.533993</ele>
        <time>2021-10-17T08:07:48Z</time>
      </trkpt>
      <trkpt lat="43.62362" lon="3.85106">
        <ele>59.519032</ele>
        <time>2021-10-17T08:07:58Z</time>
      </trkpt>
      <trkpt lat="43.62341" lon="3.85151">
        <ele>57.847553</ele>
        <time>2021-10-17T08:08:08Z</time>
      </trkpt>
      <trkpt lat="43.62313" lon="3.85196">
        <ele>56.045074</ele>
        <time>2021-10-17T08:08:18Z</time>
      </trkpt>
      <trkpt lat="43.62284" lon="3.85249">
        <ele>54.443081</ele>
        <time>2021-10-17T08:08:28Z</time>
      </trkpt>
      <trkpt lat="43.62272" lon="3.85333">
        <ele>51.616444</ele>
        <time>2021-10-17T08:08:38Z</time>
      </trkpt>
      <trkpt lat="43.62264" lon="3.85414">
        <ele>48.173828</ele>
        <time>2021-10-17T08:08:48Z</time>
      </trkpt>
      <trkpt lat="43.62241" lon="3.85476">
        <ele>46.362629</ele>
        <time>2021-10-17T08:08:58Z</time>
      </trkpt>
      <trkpt lat="43.62197" lon="3.85542">
        <ele>44.138184</ele>
        <time>2021-10-17T08:09:08Z</time>
      </trkpt>
      <trkpt lat="43.62155" lon="3.8561">
        <ele>41.842278</ele>
        <time>2021-10-17T08:09:18Z</time>
      </trkpt>
      <trkpt lat="43.62117" lon="3.85675">
        <ele>40.739655</ele>
        <time>2021-10-17T08:09:28Z</time>
      </trkpt>
      <trkpt lat="43.62092" lon="3.85745">
        <ele>41.157433</ele>
        <time>2021-10-17T08:09:38Z</time>
      </trkpt>
      <trkpt lat="43.62095" lon="3.8581">
        <ele>42.358246</ele>
        <time>2021-10-17T08:09:48Z</time>
      </trkpt>
      <trkpt lat="43.62138" lon="3.8587">
        <ele>40.40266</ele>
        <time>2021-10-17T08:09:58Z</time>
      </trkpt>
      <trkpt lat="43.6218" lon="3.85923">
        <ele>39.967026</ele>
        <time>2021-10-17T08:10:08Z</time>
      </trkpt>
      <trkpt lat="43.62219" lon="3.85979">
        <ele>40.115856</ele>
        <time>2021-10-17T08:10:18Z</time>
      </trkpt>
      <trkpt lat="43.62259" lon="3.86036">
        <ele>41.138184</ele>
        <time>2021-10-17T08:10:28Z</time>
      </trkpt>
      <trkpt lat="43.62298" lon="3.86092">
        <ele>42.675945</ele>
        <time>2021-10-17T08:10:38Z</time>
      </trkpt>
      <trkpt lat="43.62338" lon="3.86146">
        <ele>43.776775</ele>
        <time>2021-10-17T08:10:48Z</time>
      </trkpt>
      <trkpt lat="43.62372" lon="3.86196">
        <ele>44.360783</ele>
        <time>2021-10-17T08:10:58Z</time>
      </trkpt>
      <trkpt lat="43.62412" lon="3.86248">
        <ele>44.887493</ele>
        <time>2021-10-17T08:11:08Z</time>
      </trkpt>
      <trkpt lat="43.62444" lon="3.86302">
        <ele>44.731018</ele>
        <time>2021-10-17T08:11:18Z</time>
      </trkpt>
      <trkpt lat="43.62474" lon="3.86347">
        <ele>44.84668</ele>
        <time>2021-10-17T08:11:28Z</time>
      </trkpt>
      <trkpt lat="43.62503" lon="3.86391">
        <ele>44.997356</ele>
        <time>2021-10-17T08:11:38Z</time>
      </trkpt>
      <trkpt lat="43.62531" lon="3.86434">
        <ele>44.887699</ele>
        <time>2021-10-17T08:11:48Z</time>
      </trkpt>
      <trkpt lat="43.62561" lon="3.86479">
        <ele>45.244198</ele>
        <time>2021-10-17T08:11:58Z</time>
      </trkpt>
      <trkpt lat="43.62592" lon="3.86529">
        <ele>46.212402</ele>
        <time>2021-10-17T08:12:08Z</time>
      </trkpt>
      <trkpt lat="43.62621" lon="3.86576">
        <ele>46.984455</ele>
        <time>2021-10-17T08:12:18Z</time>
      </trkpt>
      <trkpt lat="43.62651" lon="3.86629">
        <ele>47.413166</ele>
        <time>2021-10-17T08:12:28Z</time>
      </trkpt>
      <trkpt lat="43.62692" lon="3.86654">
        <ele>47.951252</ele>
        <time>2021-10-17T08:12:38Z</time>
      </trkpt>
      <trkpt lat="43.62723" lon="3.86697">
        <ele>47.548458</ele>
        <time>2021-10-17T08:12:48Z</time>
      </trkpt>
      <trkpt lat="43.62756" lon="3.86742">
        <ele>47.15099</ele>
        <time>2021-10-17T08:12:58Z</time>
      </trkpt>
      <trkpt lat="43.62787" lon="3.86782">
        <ele>48.440105</ele>
        <time>2021-10-17T08:13:08Z</time>
      </trkpt>
      <trkpt lat="43.62817" lon="3.8682">
        <ele>49.790421</ele>
        <time>2021-10-17T08:13:18Z</time>
      </trkpt>
      <trkpt lat="43.62848" lon="3.86854">
        <ele>51.033283</ele>
        <time>2021-10-17T08:13:28Z</time>
      </trkpt>
      <trkpt lat="43.62873" lon="3.86892">
        <ele>51.801346</ele>
        <time>2021-10-17T08:13:38Z</time>
      </trkpt>
      <trkpt lat="43.62896" lon="3.86925">
        <ele>52.017429</ele>
        <time>2021-10-17T08:13:48Z</time>
      </trkpt>
      <trkpt lat="43.62925" lon="3.86962">
        <ele>52</ele>
        <time>2021-10-17T08:13:58Z</time>
      </trkpt>
      <trkpt lat="43.62963" lon="3.86977">
        <ele>52.017578</ele>
        <time>2021-10-17T08:14:08Z</time>
      </trkpt>
      <trkpt lat="43.63001" lon="3.86957">
        <ele>52.494305</ele>
        <time>2021-10-17T08:14:18Z</time>
      </trkpt>
      <trkpt lat="43.63039" lon="3.86939">
        <ele>53.042725</ele>
        <time>2021-10-17T08:14:28Z</time>
      </trkpt>
      <trkpt lat="43.63075" lon="3.86916">
        <ele>53.610596</ele>
        <time>2021-10-17T08:14:38Z</time>
      </trkpt>
      <trkpt lat="43.63112" lon="3.86889">
        <ele>54.356121</ele>
        <time>2021-10-17T08:14:48Z</time>
      </trkpt>
      <trkpt lat="43.63149" lon="3.86862">
        <ele>55.256023</ele>
        <time>2021-10-17T08:14:58Z</time>
      </trkpt>
      <trkpt lat="43.63184" lon="3.86839">
        <ele>56.255047</ele>
        <time>2021-10-17T08:15:08Z</time>
      </trkpt>
      <trkpt lat="43.63216" lon="3.86814">
        <ele>57.094482</ele>
        <time>2021-10-17T08:15:18Z</time>
      </trkpt>
      <trkpt lat="43.63249" lon="3.86795">
        <ele>58.05534</ele>
        <time>2021-10-17T08:15:28Z</time>
      </trkpt>
      <trkpt lat="43.63282" lon="3.86784">
        <ele>59.256481</ele>
        <time>2021-10-17T08:15:38Z</time>
      </trkpt>
      <trkpt lat="43.63314" lon="3.8678">
        <ele>60.228382</ele>
        <time>2021-10-17T08:15:48Z</time>
      </trkpt>
      <trkpt lat="43.63347" lon="3.86781">
        <ele>61.16048</ele>
        <time>2021-10-17T08:15:58Z</time>
      </trkpt>
      <trkpt lat="43.63379" lon="3.86793">
        <ele>61.979656</ele>
        <time>2021-10-17T08:16:08Z</time>
      </trkpt>
      <trkpt lat="43.63414" lon="3.86801">
        <ele>62.626812</ele>
        <time>2021-10-17T08:16:18Z</time>
      </trkpt>
      <trkpt lat="43.6345" lon="3.86805">
        <ele>63.2738</ele>
        <time>2021-10-17T08:16:28Z</time>
      </trkpt>
      <trkpt lat="43.63487" lon="3.86817">
        <ele>63.928223</ele>
        <time>2021-10-17T08:16:38Z</time>
      </trkpt>
      <trkpt lat="43.63529" lon="3.86824">
        <ele>64.543053</ele>
        <time>2021-10-17T08:16:48Z</time>
      </trkpt>
      <trkpt lat="43.63571" lon="3.86814">
        <ele>64.873322</ele>
        <time>2021-10-17T08:16:58Z</time>
      </trkpt>
      <trkpt lat="43.6361" lon="3.86782">
        <ele>64.113785</ele>
        <time>2021-10-17T08:17:08Z</time>
      </trkpt>
      <trkpt lat="43.63652" lon="3.86755">
        <ele>62.522625</ele>
        <time>2021-10-17T08:17:18Z</time>
      </trkpt>
      <trkpt lat="43.63688" lon="3.86722">
        <ele>61.219158</ele>
        <time>2021-10-17T08:17:28Z</time>
      </trkpt>
      <trkpt lat="43.63724" lon="3.86695">
        <ele>60.515472</ele>
        <time>2021-10-17T08:17:38Z</time>
      </trkpt>
      <trkpt lat="43.63749" lon="3.86664">
        <ele>62.148327</ele>
        <time>2021-10-17T08:17:48Z</time>
      </trkpt>
      <trkpt lat="43.63776" lon="3.86639">
        <ele>64.416199</ele>
        <time>2021-10-17T08:17:58Z</time>
      </trkpt>
      <trkpt lat="43.63804" lon="3.86617">
        <ele>66.330559</ele>
        <time>2021-10-17T08:18:08Z</time>
      </trkpt>
      <trkpt lat="43.63831" lon="3.86594">
        <ele>67.829979</ele>
        <time>2021-10-17T08:18:18Z</time>
      </trkpt>
      <trkpt lat="43.63857" lon="3.86567">
        <ele>69.405128</ele>
        <time>2021-10-17T08:18:28Z</time>
      </trkpt>
      <trkpt lat="43.63877" lon="3.8659">
        <ele>71.219398</ele>
        <time>2021-10-17T08:18:38Z</time>
      </trkpt>
      <trkpt lat="43.63894" lon="3.86628">
        <ele>72.765869</ele>
        <time>2021-10-17T08:18:48Z</time>
      </trkpt>
      <trkpt lat="43.63909" lon="3.86662">
        <ele>74.03257</ele>
        <time>2021-10-17T08:18:58Z</time>
      </trkpt>
      <trkpt lat="43.63931" lon="3.86675">
        <ele>73.189751</ele>
        <time>2021-10-17T08:19:08Z</time>
      </trkpt>
      <trkpt lat="43.63952" lon="3.86683">
        <ele>73.481544</ele>
        <time>2021-10-17T08:19:18Z</time>
      </trkpt>
      <trkpt lat="43.63973" lon="3.86695">
        <ele>73.620827</ele>
        <time>2021-10-17T08:19:28Z</time>
      </trkpt>
      <trkpt lat="43.63992" lon="3.86695">
        <ele>74.246391</ele>
        <time>2021-10-17T08:19:38Z</time>
      </trkpt>
      <trkpt lat="43.64013" lon="3.86678">
        <ele>76.60183</ele>
        <time>2021-10-17T08:19:48Z</time>
      </trkpt>
      <trkpt lat="43.64033" lon="3.86651">
        <ele>79.252846</ele>
        <time>2021-10-17T08:19:58Z</time>
      </trkpt>
      <trkpt lat="43.64046" lon="3.86623">
        <ele>80.78833</ele>
        <time>2021-10-17T08:20:08Z</time>
      </trkpt>
      <trkpt lat="43.6406" lon="3.86581">
        <ele>81.301399</ele>
        <time>2021-10-17T08:20:18Z</time>
      </trkpt>
      <trkpt lat="43.64078" lon="3.86547">
        <ele>81.530037</ele>
        <time>2021-10-17T08:20:28Z</time>
      </trkpt>
      <trkpt lat="43.64098" lon="3.86562">
        <ele>81.956299</ele>
        <time>2021-10-17T08:20:38Z</time>
      </trkpt>
      <trkpt lat="43.64124" lon="3.8656">
        <ele>83.540932</ele>
        <time>2021-10-17T08:20:48Z</time>
      </trkpt>
      <trkpt lat="43.6414" lon="3.86523">
        <ele>83.823402</ele>
        <time>2021-10-17T08:20:58Z</time>
      </trkpt>
      <trkpt lat="43.64162" lon="3.8655">
        <ele>84.803383</ele>
        <time>2021-10-17T08:21:08Z</time>
      </trkpt>
      <trkpt lat="43.64182" lon="3.86579">
        <ele>86.817223</ele>
        <time>2021-10-17T08:21:18Z</time>
      </trkpt>
      <trkpt lat="43.64207" lon="3.86588">
        <ele>88.979492</ele>
        <time>2021-10-17T08:21:28Z</time>
      </trkpt>
      <trkpt lat="43.64236" lon="3.86593">
        <ele>91.375977</ele>
        <time>2021-10-17T08:21:38Z</time>
      </trkpt>
      <trkpt lat="43.64252" lon="3.86597">
        <ele>93.307129</ele>
        <time>2021-10-17T08:21:48Z</time>
      </trkpt>
      <trkpt lat="43.64263" lon="3.86598">
        <ele>94.23568</ele>
        <time>2021-10-17T08:21:58Z</time>
      </trkpt>
      <trkpt lat="43.64291" lon="3.86599">
        <ele>94.94873</ele>
        <time>2021-10-17T08:22:28Z</time>
      </trkpt>
      <trkpt lat="43.64303" lon="3.86592">
        <ele>95.369301</ele>
        <time>2021-10-17T08:22:48Z</time>
      </trkpt>
      <trkpt lat="43.64294" lon="3.86553">
        <ele>95.324867</ele>
        <time>2021-10-17T08:22:58Z</time>
      </trkpt>
      <trkpt lat="43.64274" lon="3.86538">
        <ele>94.352455</ele>
        <time>2021-10-17T08:23:28Z</time>
      </trkpt>
      <trkpt lat="43.6426" lon="3.86537">
        <ele>93.868408</ele>
        <time>2021-10-17T08:23:48Z</time>
      </trkpt>
      <trkpt lat="43.64246" lon="3.86535">
        <ele>93.397697</ele>
        <time>2021-10-17T08:23:58Z</time>
      </trkpt>
      <trkpt lat="43.64233" lon="3.8653">
        <ele>92.312073</ele>
        <time>2021-10-17T08:24:08Z</time>
      </trkpt>
      <trkpt lat="43.64217" lon="3.86528">
        <ele>90.932869</ele>
        <time>2021-10-17T08:24:18Z</time>
      </trkpt>
      <trkpt lat="43.64199" lon="3.86541">
        <ele>89.044106</ele>
        <time>2021-10-17T08:24:28Z</time>
      </trkpt>
      <trkpt lat="43.64199" lon="3.86579">
        <ele>88.770538</ele>
        <time>2021-10-17T08:24:38Z</time>
      </trkpt>
      <trkpt lat="43.64199" lon="3.86624">
        <ele>89.47998</ele>
        <time>2021-10-17T08:24:48Z</time>
      </trkpt>
      <trkpt lat="43.64209" lon="3.86669">
        <ele>89.744514</ele>
        <time>2021-10-17T08:24:58Z</time>
      </trkpt>
      <trkpt lat="43.64222" lon="3.86706">
        <ele>90.09906</ele>
        <time>2021-10-17T08:25:08Z</time>
      </trkpt>
      <trkpt lat="43.64237" lon="3.86735">
        <ele>90.055977</ele>
        <time>2021-10-17T08:25:18Z</time>
      </trkpt>
      <trkpt lat="43.64267" lon="3.8675">
        <ele>91.210449</ele>
        <time>2021-10-17T08:25:28Z</time>
      </trkpt>
      <trkpt lat="43.64307" lon="3.86765">
        <ele>91.539955</ele>
        <time>2021-10-17T08:25:38Z</time>
      </trkpt>
      <trkpt lat="43.64343" lon="3.86763">
        <ele>90.425072</ele>
        <time>2021-10-17T08:25:48Z</time>
      </trkpt>
      <trkpt lat="43.64353" lon="3.86762">
        <ele>88.233093</ele>
        <time>2021-10-17T08:25:58Z</time>
      </trkpt>
      <trkpt lat="43.64357" lon="3.86739">
        <ele>87.188194</ele>
        <time>2021-10-17T08:26:08Z</time>
      </trkpt>
      <trkpt lat="43.64378" lon="3.86737">
        <ele>85.463745</ele>
        <time>2021-10-17T08:26:18Z</time>
      </trkpt>
      <trkpt lat="43.64397" lon="3.86724">
        <ele>83.185822</ele>
        <time>2021-10-17T08:26:28Z</time>
      </trkpt>
      <trkpt lat="43.64421" lon="3.86756">
        <ele>78.984375</ele>
        <time>2021-10-17T08:26:38Z</time>
      </trkpt>
      <trkpt lat="43.6442" lon="3.8681">
        <ele>77.037117</ele>
        <time>2021-10-17T08:26:48Z</time>
      </trkpt>
      <trkpt lat="43.64442" lon="3.8684">
        <ele>76.030006</ele>
        <time>2021-10-17T08:26:58Z</time>
      </trkpt>
      <trkpt lat="43.64463" lon="3.86868">
        <ele>70.88504</ele>
        <time>2021-10-17T08:27:08Z</time>
      </trkpt>
      <trkpt lat="43.6447" lon="3.86905">
        <ele>68.275063</ele>
        <time>2021-10-17T08:27:18Z</time>
      </trkpt>
      <trkpt lat="43.64473" lon="3.86911">
        <ele>66.952232</ele>
        <time>2021-10-17T08:27:28Z</time>
      </trkpt>
      <trkpt lat="43.64487" lon="3.86935">
        <ele>65.872131</ele>
        <time>2021-10-17T08:27:38Z</time>
      </trkpt>
      <trkpt lat="43.64507" lon="3.86882">
        <ele>60.820347</ele>
        <time>2021-10-17T08:27:48Z</time>
      </trkpt>
      <trkpt lat="43.64546" lon="3.86854">
        <ele>57.730648</ele>
        <time>2021-10-17T08:27:58Z</time>
      </trkpt>
      <trkpt lat="43.64589" lon="3.86854">
        <ele>50.998211</ele>
        <time>2021-10-17T08:28:08Z</time>
      </trkpt>
      <trkpt lat="43.64635" lon="3.86858">
        <ele>47.302044</ele>
        <time>2021-10-17T08:28:18Z</time>
      </trkpt>
      <trkpt lat="43.6468" lon="3.86858">
        <ele>47.856792</ele>
        <time>2021-10-17T08:28:28Z</time>
      </trkpt>
      <trkpt lat="43.64722" lon="3.86859">
        <ele>50.069073</ele>
        <time>2021-10-17T08:28:38Z</time>
      </trkpt>
      <trkpt lat="43.64753" lon="3.86861">
        <ele>51.543274</ele>
        <time>2021-10-17T08:28:48Z</time>
      </trkpt>
      <trkpt lat="43.64785" lon="3.86865">
        <ele>51.115353</ele>
        <time>2021-10-17T08:28:58Z</time>
      </trkpt>
      <trkpt lat="43.64821" lon="3.86864">
        <ele>50.60416</ele>
        <time>2021-10-17T08:29:08Z</time>
      </trkpt>
      <trkpt lat="43.64858" lon="3.86846">
        <ele>50.391285</ele>
        <time>2021-10-17T08:29:18Z</time>
      </trkpt>
      <trkpt lat="43.64891" lon="3.86812">
        <ele>50.589893</ele>
        <time>2021-10-17T08:29:28Z</time>
      </trkpt>
      <trkpt lat="43.64923" lon="3.86778">
        <ele>50.292339</ele>
        <time>2021-10-17T08:29:38Z</time>
      </trkpt>
      <trkpt lat="43.64958" lon="3.86736">
        <ele>48.971191</ele>
        <time>2021-10-17T08:29:48Z</time>
      </trkpt>
      <trkpt lat="43.64991" lon="3.86697">
        <ele>48.593365</ele>
        <time>2021-10-17T08:29:58Z</time>
      </trkpt>
      <trkpt lat="43.65023" lon="3.86671">
        <ele>52.702221</ele>
        <time>2021-10-17T08:30:08Z</time>
      </trkpt>
      <trkpt lat="43.65064" lon="3.86664">
        <ele>54.518696</ele>
        <time>2021-10-17T08:30:18Z</time>
      </trkpt>
      <trkpt lat="43.65079" lon="3.86713">
        <ele>51.650452</ele>
        <time>2021-10-17T08:30:28Z</time>
      </trkpt>
      <trkpt lat="43.65085" lon="3.86766">
        <ele>47.137379</ele>
        <time>2021-10-17T08:30:38Z</time>
      </trkpt>
      <trkpt lat="43.65096" lon="3.86825">
        <ele>47.173382</ele>
        <time>2021-10-17T08:30:48Z</time>
      </trkpt>
      <trkpt lat="43.65111" lon="3.86888">
        <ele>47.031811</ele>
        <time>2021-10-17T08:30:58Z</time>
      </trkpt>
      <trkpt lat="43.6513" lon="3.8695">
        <ele>46.997929</ele>
        <time>2021-10-17T08:31:08Z</time>
      </trkpt>
      <trkpt lat="43.65152" lon="3.87009">
        <ele>46.27116</ele>
        <time>2021-10-17T08:31:18Z</time>
      </trkpt>
      <trkpt lat="43.65175" lon="3.8707">
        <ele>45.71574</ele>
        <time>2021-10-17T08:31:28Z</time>
      </trkpt>
      <trkpt lat="43.65198" lon="3.87121">
        <ele>45.551575</ele>
        <time>2021-10-17T08:31:38Z</time>
      </trkpt>
      <trkpt lat="43.65206" lon="3.87164">
        <ele>45.264446</ele>
        <time>2021-10-17T08:31:48Z</time>
      </trkpt>
      <trkpt lat="43.65233" lon="3.87206">
        <ele>44.922688</ele>
        <time>2021-10-17T08:31:58Z</time>
      </trkpt>
      <trkpt lat="43.65236" lon="3.87251">
        <ele>44.378357</ele>
        <time>2021-10-17T08:32:08Z</time>
      </trkpt>
      <trkpt lat="43.65202" lon="3.87243">
        <ele>45.312099</ele>
        <time>2021-10-17T08:32:18Z</time>
      </trkpt>
      <trkpt lat="43.65179" lon="3.87205">
        <ele>45.904572</ele>
        <time>2021-10-17T08:32:28Z</time>
      </trkpt>
      <trkpt lat="43.65164" lon="3.87156">
        <ele>46.104961</ele>
        <time>2021-10-17T08:32:38Z</time>
      </trkpt>
      <trkpt lat="43.65134" lon="3.87169">
        <ele>46.749928</ele>
        <time>2021-10-17T08:32:48Z</time>
      </trkpt>
      <trkpt lat="43.65114" lon="3.87215">
        <ele>46.314514</ele>
        <time>2021-10-17T08:32:58Z</time>
      </trkpt>
      <trkpt lat="43.65112" lon="3.87269">
        <ele>45.399044</ele>
        <time>2021-10-17T08:33:08Z</time>
      </trkpt>
      <trkpt lat="43.6511" lon="3.87321">
        <ele>44.898602</ele>
        <time>2021-10-17T08:33:18Z</time>
      </trkpt>
      <trkpt lat="43.65126" lon="3.87369">
        <ele>44.324543</ele>
        <time>2021-10-17T08:33:28Z</time>
      </trkpt>
      <trkpt lat="43.6514" lon="3.87422">
        <ele>44.591343</ele>
        <time>2021-10-17T08:33:38Z</time>
      </trkpt>
      <trkpt lat="43.65148" lon="3.87475">
        <ele>44.010696</ele>
        <time>2021-10-17T08:33:48Z</time>
      </trkpt>
      <trkpt lat="43.65153" lon="3.87528">
        <ele>43.643505</ele>
        <time>2021-10-17T08:33:58Z</time>
      </trkpt>
      <trkpt lat="43.65155" lon="3.87587">
        <ele>43.500744</ele>
        <time>2021-10-17T08:34:08Z</time>
      </trkpt>
      <trkpt lat="43.65172" lon="3.87636">
        <ele>43.441486</ele>
        <time>2021-10-17T08:34:18Z</time>
      </trkpt>
      <trkpt lat="43.65199" lon="3.87669">
        <ele>46.503906</ele>
        <time>2021-10-17T08:34:28Z</time>
      </trkpt>
      <trkpt lat="43.65218" lon="3.87692">
        <ele>49.625256</ele>
        <time>2021-10-17T08:34:38Z</time>
      </trkpt>
      <trkpt lat="43.6523" lon="3.87713">
        <ele>51.382282</ele>
        <time>2021-10-17T08:34:48Z</time>
      </trkpt>
      <trkpt lat="43.6522" lon="3.8775">
        <ele>51.308655</ele>
        <time>2021-10-17T08:34:58Z</time>
      </trkpt>
      <trkpt lat="43.65204" lon="3.87791">
        <ele>49.126831</ele>
        <time>2021-10-17T08:35:18Z</time>
      </trkpt>
      <trkpt lat="43.65188" lon="3.87837">
        <ele>46.359806</ele>
        <time>2021-10-17T08:35:28Z</time>
      </trkpt>
      <trkpt lat="43.65163" lon="3.87872">
        <ele>45.347889</ele>
        <time>2021-10-17T08:35:38Z</time>
      </trkpt>
      <trkpt lat="43.65138" lon="3.87907">
        <ele>43.904476</ele>
        <time>2021-10-17T08:35:48Z</time>
      </trkpt>
      <trkpt lat="43.6511" lon="3.87955">
        <ele>44.172459</ele>
        <time>2021-10-17T08:35:58Z</time>
      </trkpt>
      <trkpt lat="43.6507" lon="3.87985">
        <ele>44.52721</ele>
        <time>2021-10-17T08:36:08Z</time>
      </trkpt>
      <trkpt lat="43.65052" lon="3.88006">
        <ele>43.550663</ele>
        <time>2021-10-17T08:36:18Z</time>
      </trkpt>
      <trkpt lat="43.65064" lon="3.88016">
        <ele>44.042294</ele>
        <time>2021-10-17T08:36:28Z</time>
      </trkpt>
      <trkpt lat="43.65074" lon="3.88026">
        <ele>44.656933</ele>
        <time>2021-10-17T08:36:38Z</time>
      </trkpt>
      <trkpt lat="43.65086" lon="3.88038">
        <ele>45.600113</ele>
        <time>2021-10-17T08:36:48Z</time>
      </trkpt>
      <trkpt lat="43.65097" lon="3.88052">
        <ele>46.869953</ele>
        <time>2021-10-17T08:36:58Z</time>
      </trkpt>
      <trkpt lat="43.65113" lon="3.88049">
        <ele>48.084881</ele>
        <time>2021-10-17T08:37:08Z</time>
      </trkpt>
      <trkpt lat="43.65133" lon="3.88047">
        <ele>49.348877</ele>
        <time>2021-10-17T08:37:18Z</time>
      </trkpt>
      <trkpt lat="43.65151" lon="3.88054">
        <ele>50.985233</ele>
        <time>2021-10-17T08:37:28Z</time>
      </trkpt>
      <trkpt lat="43.65165" lon="3.88073">
        <ele>52.702579</ele>
        <time>2021-10-17T08:37:38Z</time>
      </trkpt>
      <trkpt lat="43.6518" lon="3.88096">
        <ele>54.308624</ele>
        <time>2021-10-17T08:37:48Z</time>
      </trkpt>
      <trkpt lat="43.65197" lon="3.8812">
        <ele>55.548828</ele>
        <time>2021-10-17T08:37:58Z</time>
      </trkpt>
      <trkpt lat="43.65214" lon="3.88147">
        <ele>56.581379</ele>
        <time>2021-10-17T08:38:08Z</time>
      </trkpt>
      <trkpt lat="43.65249" lon="3.88164">
        <ele>57.335022</ele>
        <time>2021-10-17T08:38:18Z</time>
      </trkpt>
      <trkpt lat="43.65271" lon="3.88192">
        <ele>57.993488</ele>
        <time>2021-10-17T08:38:28Z</time>
      </trkpt>
      <trkpt lat="43.65293" lon="3.88223">
        <ele>57.60434</ele>
        <time>2021-10-17T08:38:38Z</time>
      </trkpt>
      <trkpt lat="43.65324" lon="3.88219">
        <ele>56.721233</ele>
        <time>2021-10-17T08:38:48Z</time>
      </trkpt>
      <trkpt lat="43.65354" lon="3.88198">
        <ele>56.529789</ele>
        <time>2021-10-17T08:38:58Z</time>
      </trkpt>
      <trkpt lat="43.65385" lon="3.88179">
        <ele>55.869659</ele>
        <time>2021-10-17T08:39:08Z</time>
      </trkpt>
      <trkpt lat="43.65416" lon="3.88163">
        <ele>54.765247</ele>
        <time>2021-10-17T08:39:18Z</time>
      </trkpt>
      <trkpt lat="43.65448" lon="3.8815">
        <ele>54.196136</ele>
        <time>2021-10-17T08:39:28Z</time>
      </trkpt>
      <trkpt lat="43.65478" lon="3.88137">
        <ele>54.64909</ele>
        <time>2021-10-17T08:39:38Z</time>
      </trkpt>
      <trkpt lat="43.65509" lon="3.88125">
        <ele>55.131512</ele>
        <time>2021-10-17T08:39:48Z</time>
      </trkpt>
      <trkpt lat="43.65537" lon="3.88105">
        <ele>55.699917</ele>
        <time>2021-10-17T08:39:58Z</time>
      </trkpt>
      <trkpt lat="43.65561" lon="3.8808">
        <ele>55.843822</ele>
        <time>2021-10-17T08:40:08Z</time>
      </trkpt>
      <trkpt lat="43.65587" lon="3.88069">
        <ele>55.996094</ele>
        <time>2021-10-17T08:40:18Z</time>
      </trkpt>
      <trkpt lat="43.65614" lon="3.88051">
        <ele>56.203857</ele>
        <time>2021-10-17T08:40:28Z</time>
      </trkpt>
      <trkpt lat="43.65645" lon="3.88029">
        <ele>56.31665</ele>
        <time>2021-10-17T08:40:38Z</time>
      </trkpt>
      <trkpt lat="43.65681" lon="3.88025">
        <ele>56.601643</ele>
        <time>2021-10-17T08:40:48Z</time>
      </trkpt>
      <trkpt lat="43.65714" lon="3.88015">
        <ele>57.272083</ele>
        <time>2021-10-17T08:40:58Z</time>
      </trkpt>
      <trkpt lat="43.65743" lon="3.87992">
        <ele>59.013996</ele>
        <time>2021-10-17T08:41:08Z</time>
      </trkpt>
      <trkpt lat="43.65773" lon="3.87985">
        <ele>60.775391</ele>
        <time>2021-10-17T08:41:18Z</time>
      </trkpt>
      <trkpt lat="43.65801" lon="3.8798">
        <ele>62.47591</ele>
        <time>2021-10-17T08:41:28Z</time>
      </trkpt>
      <trkpt lat="43.65819" lon="3.87974">
        <ele>63.746418</ele>
        <time>2021-10-17T08:41:38Z</time>
      </trkpt>
      <trkpt lat="43.65831" lon="3.87962">
        <ele>64.797523</ele>
        <time>2021-10-17T08:41:48Z</time>
      </trkpt>
      <trkpt lat="43.65841" lon="3.87952">
        <ele>65.466606</ele>
        <time>2021-10-17T08:41:58Z</time>
      </trkpt>
      <trkpt lat="43.65851" lon="3.87939">
        <ele>66.416245</ele>
        <time>2021-10-17T08:42:08Z</time>
      </trkpt>
      <trkpt lat="43.65861" lon="3.87929">
        <ele>67.206596</ele>
        <time>2021-10-17T08:42:18Z</time>
      </trkpt>
      <trkpt lat="43.65868" lon="3.87917">
        <ele>68.234077</ele>
        <time>2021-10-17T08:42:28Z</time>
      </trkpt>
      <trkpt lat="43.65876" lon="3.87907">
        <ele>69.079185</ele>
        <time>2021-10-17T08:42:38Z</time>
      </trkpt>
      <trkpt lat="43.65884" lon="3.87895">
        <ele>70.251457</ele>
        <time>2021-10-17T08:42:48Z</time>
      </trkpt>
      <trkpt lat="43.65892" lon="3.87884">
        <ele>71.519348</ele>
        <time>2021-10-17T08:42:58Z</time>
      </trkpt>
      <trkpt lat="43.65903" lon="3.87875">
        <ele>73.109535</ele>
        <time>2021-10-17T08:43:08Z</time>
      </trkpt>
      <trkpt lat="43.65914" lon="3.87865">
        <ele>74.514488</ele>
        <time>2021-10-17T08:43:18Z</time>
      </trkpt>
      <trkpt lat="43.65925" lon="3.87858">
        <ele>76.254555</ele>
        <time>2021-10-17T08:43:28Z</time>
      </trkpt>
      <trkpt lat="43.65931" lon="3.87875">
        <ele>76.858727</ele>
        <time>2021-10-17T08:43:38Z</time>
      </trkpt>
      <trkpt lat="43.65943" lon="3.87891">
        <ele>77.655678</ele>
        <time>2021-10-17T08:43:48Z</time>
      </trkpt>
      <trkpt lat="43.65955" lon="3.87905">
        <ele>78.202232</ele>
        <time>2021-10-17T08:45:28Z</time>
      </trkpt>
      <trkpt lat="43.65971" lon="3.8792">
        <ele>79.040924</ele>
        <time>2021-10-17T08:45:48Z</time>
      </trkpt>
      <trkpt lat="43.65986" lon="3.87943">
        <ele>78.861504</ele>
        <time>2021-10-17T08:45:58Z</time>
      </trkpt>
      <trkpt lat="43.65997" lon="3.87965">
        <ele>78.808327</ele>
        <time>2021-10-17T08:46:28Z</time>
      </trkpt>
      <trkpt lat="43.66015" lon="3.87989">
        <ele>78.340263</ele>
        <time>2021-10-17T08:46:48Z</time>
      </trkpt>
      <trkpt lat="43.66038" lon="3.88006">
        <ele>78.207664</ele>
        <time>2021-10-17T08:46:58Z</time>
      </trkpt>
      <trkpt lat="43.66061" lon="3.88013">
        <ele>78.433617</ele>
        <time>2021-10-17T08:47:08Z</time>
      </trkpt>
      <trkpt lat="43.66086" lon="3.88023">
        <ele>78.538399</ele>
        <time>2021-10-17T08:47:18Z</time>
      </trkpt>
      <trkpt lat="43.66115" lon="3.88021">
        <ele>78.793999</ele>
        <time>2021-10-17T08:47:28Z</time>
      </trkpt>
      <trkpt lat="43.66147" lon="3.88022">
        <ele>79.256233</ele>
        <time>2021-10-17T08:47:38Z</time>
      </trkpt>
      <trkpt lat="43.66156" lon="3.8802">
        <ele>79.013969</ele>
        <time>2021-10-17T08:47:48Z</time>
      </trkpt>
      <trkpt lat="43.66174" lon="3.88041">
        <ele>78.861755</ele>
        <time>2021-10-17T08:47:58Z</time>
      </trkpt>
      <trkpt lat="43.66192" lon="3.88061">
        <ele>77.811089</ele>
        <time>2021-10-17T08:48:08Z</time>
      </trkpt>
      <trkpt lat="43.66215" lon="3.88053">
        <ele>77.711792</ele>
        <time>2021-10-17T08:48:18Z</time>
      </trkpt>
      <trkpt lat="43.66248" lon="3.88032">
        <ele>78.011971</ele>
        <time>2021-10-17T08:48:28Z</time>
      </trkpt>
      <trkpt lat="43.66282" lon="3.88022">
        <ele>78.521767</ele>
        <time>2021-10-17T08:48:38Z</time>
      </trkpt>
      <trkpt lat="43.6631" lon="3.8801">
        <ele>79.733788</ele>
        <time>2021-10-17T08:48:48Z</time>
      </trkpt>
      <trkpt lat="43.66335" lon="3.87993">
        <ele>81.301933</ele>
        <time>2021-10-17T08:48:58Z</time>
      </trkpt>
      <trkpt lat="43.66354" lon="3.87973">
        <ele>83.549408</ele>
        <time>2021-10-17T08:49:08Z</time>
      </trkpt>
      <trkpt lat="43.66372" lon="3.87968">
        <ele>85.521202</ele>
        <time>2021-10-17T08:49:18Z</time>
      </trkpt>
      <trkpt lat="43.66388" lon="3.87965">
        <ele>87.162415</ele>
        <time>2021-10-17T08:49:28Z</time>
      </trkpt>
      <trkpt lat="43.66404" lon="3.87963">
        <ele>88.680336</ele>
        <time>2021-10-17T08:49:38Z</time>
      </trkpt>
      <trkpt lat="43.66423" lon="3.87956">
        <ele>90.535759</ele>
        <time>2021-10-17T08:49:48Z</time>
      </trkpt>
      <trkpt lat="43.6644" lon="3.87949">
        <ele>92.769035</ele>
        <time>2021-10-17T08:49:58Z</time>
      </trkpt>
      <trkpt lat="43.66456" lon="3.87939">
        <ele>94.562889</ele>
        <time>2021-10-17T08:50:08Z</time>
      </trkpt>
      <trkpt lat="43.66472" lon="3.87927">
        <ele>96.444328</ele>
        <time>2021-10-17T08:50:18Z</time>
      </trkpt>
      <trkpt lat="43.66483" lon="3.87914">
        <ele>97.738228</ele>
        <time>2021-10-17T08:50:28Z</time>
      </trkpt>
      <trkpt lat="43.66489" lon="3.87896">
        <ele>98.622063</ele>
        <time>2021-10-17T08:50:38Z</time>
      </trkpt>
      <trkpt lat="43.66501" lon="3.87881">
        <ele>99.588867</ele>
        <time>2021-10-17T08:50:48Z</time>
      </trkpt>
      <trkpt lat="43.66509" lon="3.87865">
        <ele>99.774658</ele>
        <time>2021-10-17T08:50:58Z</time>
      </trkpt>
      <trkpt lat="43.66514" lon="3.87848">
        <ele>99.645477</ele>
        <time>2021-10-17T08:51:08Z</time>
      </trkpt>
      <trkpt lat="43.66528" lon="3.87839">
        <ele>99.508705</ele>
        <time>2021-10-17T08:51:18Z</time>
      </trkpt>
      <trkpt lat="43.66551" lon="3.87829">
        <ele>100.531761</ele>
        <time>2021-10-17T08:51:28Z</time>
      </trkpt>
      <trkpt lat="43.66569" lon="3.87811">
        <ele>101.663612</ele>
        <time>2021-10-17T08:51:38Z</time>
      </trkpt>
      <trkpt lat="43.66586" lon="3.87795">
        <ele>102.026909</ele>
        <time>2021-10-17T08:51:48Z</time>
      </trkpt>
      <trkpt lat="43.66596" lon="3.87813">
        <ele>103.071205</ele>
        <time>2021-10-17T08:51:58Z</time>
      </trkpt>
      <trkpt lat="43.66601" lon="3.87836">
        <ele>104.147369</ele>
        <time>2021-10-17T08:52:08Z</time>
      </trkpt>
      <trkpt lat="43.66606" lon="3.87858">
        <ele>104.945656</ele>
        <time>2021-10-17T08:52:18Z</time>
      </trkpt>
      <trkpt lat="43.66614" lon="3.87878">
        <ele>105.982063</ele>
        <time>2021-10-17T08:52:28Z</time>
      </trkpt>
      <trkpt lat="43.66624" lon="3.87893">
        <ele>106.912682</ele>
        <time>2021-10-17T08:52:38Z</time>
      </trkpt>
      <trkpt lat="43.66636" lon="3.87908">
        <ele>107.675026</ele>
        <time>2021-10-17T08:52:48Z</time>
      </trkpt>
      <trkpt lat="43.6665" lon="3.87924">
        <ele>108.701874</ele>
        <time>2021-10-17T08:52:58Z</time>
      </trkpt>
      <trkpt lat="43.66667" lon="3.8795">
        <ele>109.856232</ele>
        <time>2021-10-17T08:53:08Z</time>
      </trkpt>
      <trkpt lat="43.6668" lon="3.87974">
        <ele>110.882835</ele>
        <time>2021-10-17T08:53:18Z</time>
      </trkpt>
      <trkpt lat="43.66689" lon="3.87998">
        <ele>111.460167</ele>
        <time>2021-10-17T08:53:28Z</time>
      </trkpt>
      <trkpt lat="43.667" lon="3.88018">
        <ele>112.514488</ele>
        <time>2021-10-17T08:53:38Z</time>
      </trkpt>
      <trkpt lat="43.66711" lon="3.88035">
        <ele>114.044495</ele>
        <time>2021-10-17T08:53:48Z</time>
      </trkpt>
      <trkpt lat="43.66719" lon="3.88055">
        <ele>115.056732</ele>
        <time>2021-10-17T08:53:58Z</time>
      </trkpt>
      <trkpt lat="43.66727" lon="3.88076">
        <ele>116.039337</ele>
        <time>2021-10-17T08:54:08Z</time>
      </trkpt>
      <trkpt lat="43.66737" lon="3.88092">
        <ele>116.93174</ele>
        <time>2021-10-17T08:54:18Z</time>
      </trkpt>
      <trkpt lat="43.66751" lon="3.88094">
        <ele>118.161133</ele>
        <time>2021-10-17T08:54:28Z</time>
      </trkpt>
      <trkpt lat="43.66763" lon="3.88093">
        <ele>119.993774</ele>
        <time>2021-10-17T08:54:38Z</time>
      </trkpt>
      <trkpt lat="43.66775" lon="3.88102">
        <ele>121.348595</ele>
        <time>2021-10-17T08:54:48Z</time>
      </trkpt>
      <trkpt lat="43.66781" lon="3.88137">
        <ele>121.686195</ele>
        <time>2021-10-17T08:54:58Z</time>
      </trkpt>
      <trkpt lat="43.66773" lon="3.8815">
        <ele>120.709465</ele>
        <time>2021-10-17T08:55:08Z</time>
      </trkpt>
      <trkpt lat="43.66787" lon="3.88152">
        <ele>119.9869</ele>
        <time>2021-10-17T08:56:28Z</time>
      </trkpt>
      <trkpt lat="43.6682" lon="3.88171">
        <ele>121.755089</ele>
        <time>2021-10-17T08:56:48Z</time>
      </trkpt>
      <trkpt lat="43.66861" lon="3.88203">
        <ele>119.749046</ele>
        <time>2021-10-17T08:56:58Z</time>
      </trkpt>
      <trkpt lat="43.66909" lon="3.88221">
        <ele>116.346382</ele>
        <time>2021-10-17T08:57:08Z</time>
      </trkpt>
      <trkpt lat="43.66956" lon="3.88203">
        <ele>113.526817</ele>
        <time>2021-10-17T08:57:18Z</time>
      </trkpt>
      <trkpt lat="43.66993" lon="3.88196">
        <ele>111.45575</ele>
        <time>2021-10-17T08:57:28Z</time>
      </trkpt>
      <trkpt lat="43.6703" lon="3.88191">
        <ele>109.392189</ele>
        <time>2021-10-17T08:57:38Z</time>
      </trkpt>
      <trkpt lat="43.67055" lon="3.88214">
        <ele>108.547241</ele>
        <time>2021-10-17T08:57:48Z</time>
      </trkpt>
      <trkpt lat="43.6708" lon="3.88238">
        <ele>109.90097</ele>
        <time>2021-10-17T08:57:58Z</time>
      </trkpt>
      <trkpt lat="43.67098" lon="3.88256">
        <ele>110.570152</ele>
        <time>2021-10-17T08:58:08Z</time>
      </trkpt>
      <trkpt lat="43.67115" lon="3.88272">
        <ele>110.819176</ele>
        <time>2021-10-17T08:58:18Z</time>
      </trkpt>
      <trkpt lat="43.67127" lon="3.88284">
        <ele>111.117188</ele>
        <time>2021-10-17T08:58:28Z</time>
      </trkpt>
      <trkpt lat="43.6712" lon="3.88308">
        <ele>110.748779</ele>
        <time>2021-10-17T08:58:38Z</time>
      </trkpt>
      <trkpt lat="43.67125" lon="3.88333">
        <ele>108.665039</ele>
        <time>2021-10-17T08:58:48Z</time>
      </trkpt>
      <trkpt lat="43.67123" lon="3.88358">
        <ele>107.134361</ele>
        <time>2021-10-17T08:58:58Z</time>
      </trkpt>
      <trkpt lat="43.67108" lon="3.88379">
        <ele>105.316765</ele>
        <time>2021-10-17T08:59:08Z</time>
      </trkpt>
      <trkpt lat="43.67104" lon="3.88424">
        <ele>101.888908</ele>
        <time>2021-10-17T08:59:18Z</time>
      </trkpt>
      <trkpt lat="43.67104" lon="3.88454">
        <ele>99.82589</ele>
        <time>2021-10-17T08:59:28Z</time>
      </trkpt>
      <trkpt lat="43.67081" lon="3.88489">
        <ele>98.479492</ele>
        <time>2021-10-17T08:59:38Z</time>
      </trkpt>
      <trkpt lat="43.67047" lon="3.8851">
        <ele>97.09977</ele>
        <time>2021-10-17T08:59:48Z</time>
      </trkpt>
      <trkpt lat="43.6703" lon="3.88521">
        <ele>97.452599</ele>
        <time>2021-10-17T08:59:58Z</time>
      </trkpt>
      <trkpt lat="43.67016" lon="3.88537">
        <ele>98.346291</ele>
        <time>2021-10-17T09:00:08Z</time>
      </trkpt>
      <trkpt lat="43.67009" lon="3.88559">
        <ele>99.84597</ele>
        <time>2021-10-17T09:00:18Z</time>
      </trkpt>
      <trkpt lat="43.67005" lon="3.88578">
        <ele>101.341057</ele>
        <time>2021-10-17T09:00:28Z</time>
      </trkpt>
      <trkpt lat="43.67006" lon="3.88596">
        <ele>103.88102</ele>
        <time>2021-10-17T09:00:38Z</time>
      </trkpt>
      <trkpt lat="43.67003" lon="3.8862">
        <ele>105.468102</ele>
        <time>2021-10-17T09:00:58Z</time>
      </trkpt>
      <trkpt lat="43.67" lon="3.88643">
        <ele>107.908531</ele>
        <time>2021-10-17T09:01:08Z</time>
      </trkpt>
      <trkpt lat="43.66998" lon="3.88663">
        <ele>109.568848</ele>
        <time>2021-10-17T09:01:18Z</time>
      </trkpt>
      <trkpt lat="43.66997" lon="3.88686">
        <ele>111.266441</ele>
        <time>2021-10-17T09:01:28Z</time>
      </trkpt>
      <trkpt lat="43.66997" lon="3.8871">
        <ele>113.016762</ele>
        <time>2021-10-17T09:01:38Z</time>
      </trkpt>
      <trkpt lat="43.66998" lon="3.88736">
        <ele>114.675842</ele>
        <time>2021-10-17T09:01:48Z</time>
      </trkpt>
      <trkpt lat="43.66997" lon="3.88764">
        <ele>116.155884</ele>
        <time>2021-10-17T09:01:58Z</time>
      </trkpt>
      <trkpt lat="43.66997" lon="3.88808">
        <ele>117.564087</ele>
        <time>2021-10-17T09:02:08Z</time>
      </trkpt>
      <trkpt lat="43.66996" lon="3.88853">
        <ele>116.612724</ele>
        <time>2021-10-17T09:02:18Z</time>
      </trkpt>
      <trkpt lat="43.67003" lon="3.88916">
        <ele>114.180199</ele>
        <time>2021-10-17T09:02:28Z</time>
      </trkpt>
      <trkpt lat="43.67012" lon="3.88987">
        <ele>110.154938</ele>
        <time>2021-10-17T09:02:38Z</time>
      </trkpt>
      <trkpt lat="43.67025" lon="3.89067">
        <ele>104.564507</ele>
        <time>2021-10-17T09:02:48Z</time>
      </trkpt>
      <trkpt lat="43.67034" lon="3.89138">
        <ele>100.228447</ele>
        <time>2021-10-17T09:02:58Z</time>
      </trkpt>
      <trkpt lat="43.67042" lon="3.89202">
        <ele>96.679939</ele>
        <time>2021-10-17T09:03:08Z</time>
      </trkpt>
      <trkpt lat="43.67055" lon="3.89255">
        <ele>95.854759</ele>
        <time>2021-10-17T09:03:18Z</time>
      </trkpt>
      <trkpt lat="43.67063" lon="3.89246">
        <ele>96.74707</ele>
        <time>2021-10-17T09:03:28Z</time>
      </trkpt>
      <trkpt lat="43.67088" lon="3.8925">
        <ele>98.986427</ele>
        <time>2021-10-17T09:03:38Z</time>
      </trkpt>
      <trkpt lat="43.6712" lon="3.89253">
        <ele>100.662743</ele>
        <time>2021-10-17T09:03:48Z</time>
      </trkpt>
      <trkpt lat="43.6715" lon="3.89236">
        <ele>102.69297</ele>
        <time>2021-10-17T09:03:58Z</time>
      </trkpt>
      <trkpt lat="43.67172" lon="3.8923">
        <ele>103.153725</ele>
        <time>2021-10-17T09:04:08Z</time>
      </trkpt>
      <trkpt lat="43.67199" lon="3.89208">
        <ele>103.560265</ele>
        <time>2021-10-17T09:04:18Z</time>
      </trkpt>
      <trkpt lat="43.67218" lon="3.8917">
        <ele>103.517494</ele>
        <time>2021-10-17T09:04:28Z</time>
      </trkpt>
      <trkpt lat="43.67239" lon="3.89133">
        <ele>104.441978</ele>
        <time>2021-10-17T09:04:38Z</time>
      </trkpt>
      <trkpt lat="43.67254" lon="3.8912">
        <ele>105.464195</ele>
        <time>2021-10-17T09:04:48Z</time>
      </trkpt>
      <trkpt lat="43.6727" lon="3.89101">
        <ele>105.81057</ele>
        <time>2021-10-17T09:04:58Z</time>
      </trkpt>
      <trkpt lat="43.67281" lon="3.89105">
        <ele>106.514557</ele>
        <time>2021-10-17T09:05:08Z</time>
      </trkpt>
      <trkpt lat="43.67293" lon="3.89113">
        <ele>107.433647</ele>
        <time>2021-10-17T09:05:18Z</time>
      </trkpt>
      <trkpt lat="43.67302" lon="3.89114">
        <ele>107.983818</ele>
        <time>2021-10-17T09:05:28Z</time>
      </trkpt>
      <trkpt lat="43.67317" lon="3.89105">
        <ele>108.535484</ele>
        <time>2021-10-17T09:05:38Z</time>
      </trkpt>
      <trkpt lat="43.67353" lon="3.89115">
        <ele>109.661293</ele>
        <time>2021-10-17T09:05:58Z</time>
      </trkpt>
      <trkpt lat="43.67362" lon="3.89105">
        <ele>107.929016</ele>
        <time>2021-10-17T09:06:18Z</time>
      </trkpt>
      <trkpt lat="43.67374" lon="3.89073">
        <ele>105.006157</ele>
        <time>2021-10-17T09:06:28Z</time>
      </trkpt>
      <trkpt lat="43.67379" lon="3.89037">
        <ele>102.067146</ele>
        <time>2021-10-17T09:06:38Z</time>
      </trkpt>
      <trkpt lat="43.67382" lon="3.88998">
        <ele>99.414673</ele>
        <time>2021-10-17T09:06:48Z</time>
      </trkpt>
      <trkpt lat="43.6739" lon="3.8896">
        <ele>97.369286</ele>
        <time>2021-10-17T09:06:58Z</time>
      </trkpt>
      <trkpt lat="43.67389" lon="3.88925">
        <ele>94.431358</ele>
        <time>2021-10-17T09:07:18Z</time>
      </trkpt>
      <trkpt lat="43.67374" lon="3.88897">
        <ele>94.497131</ele>
        <time>2021-10-17T09:07:38Z</time>
      </trkpt>
      <trkpt lat="43.67353" lon="3.88869">
        <ele>94.433998</ele>
        <time>2021-10-17T09:07:48Z</time>
      </trkpt>
      <trkpt lat="43.67331" lon="3.88841">
        <ele>94.420105</ele>
        <time>2021-10-17T09:07:58Z</time>
      </trkpt>
      <trkpt lat="43.67307" lon="3.88812">
        <ele>94.533226</ele>
        <time>2021-10-17T09:08:08Z</time>
      </trkpt>
      <trkpt lat="43.67289" lon="3.88816">
        <ele>95.620506</ele>
        <time>2021-10-17T09:08:18Z</time>
      </trkpt>
      <trkpt lat="43.67278" lon="3.88824">
        <ele>97.009888</ele>
        <time>2021-10-17T09:08:28Z</time>
      </trkpt>
      <trkpt lat="43.6726" lon="3.88834">
        <ele>97.713066</ele>
        <time>2021-10-17T09:08:48Z</time>
      </trkpt>
      <trkpt lat="43.67274" lon="3.88826">
        <ele>98.417549</ele>
        <time>2021-10-17T09:08:58Z</time>
      </trkpt>
      <trkpt lat="43.67298" lon="3.88806">
        <ele>96.802368</ele>
        <time>2021-10-17T09:09:18Z</time>
      </trkpt>
      <trkpt lat="43.67323" lon="3.88781">
        <ele>94.571617</ele>
        <time>2021-10-17T09:09:28Z</time>
      </trkpt>
      <trkpt lat="43.67347" lon="3.88759">
        <ele>92.602211</ele>
        <time>2021-10-17T09:09:38Z</time>
      </trkpt>
      <trkpt lat="43.67369" lon="3.88737">
        <ele>92.105202</ele>
        <time>2021-10-17T09:09:48Z</time>
      </trkpt>
      <trkpt lat="43.67391" lon="3.88717">
        <ele>92.38517</ele>
        <time>2021-10-17T09:09:58Z</time>
      </trkpt>
      <trkpt lat="43.67411" lon="3.88701">
        <ele>92.937691</ele>
        <time>2021-10-17T09:10:08Z</time>
      </trkpt>
      <trkpt lat="43.67427" lon="3.88687">
        <ele>93.839775</ele>
        <time>2021-10-17T09:10:18Z</time>
      </trkpt>
      <trkpt lat="43.67444" lon="3.88678">
        <ele>95.081177</ele>
        <time>2021-10-17T09:10:28Z</time>
      </trkpt>
      <trkpt lat="43.6746" lon="3.88669">
        <ele>96.224525</ele>
        <time>2021-10-17T09:10:38Z</time>
      </trkpt>
      <trkpt lat="43.6747" lon="3.88681">
        <ele>96.94886</ele>
        <time>2021-10-17T09:10:58Z</time>
      </trkpt>
      <trkpt lat="43.67476" lon="3.88708">
        <ele>96.660255</ele>
        <time>2021-10-17T09:11:18Z</time>
      </trkpt>
      <trkpt lat="43.67483" lon="3.8874">
        <ele>95.745605</ele>
        <time>2021-10-17T09:11:28Z</time>
      </trkpt>
      <trkpt lat="43.67512" lon="3.88758">
        <ele>95.214668</ele>
        <time>2021-10-17T09:11:38Z</time>
      </trkpt>
      <trkpt lat="43.67537" lon="3.88784">
        <ele>95.159431</ele>
        <time>2021-10-17T09:11:48Z</time>
      </trkpt>
      <trkpt lat="43.67555" lon="3.88785">
        <ele>94.606049</ele>
        <time>2021-10-17T09:11:58Z</time>
      </trkpt>
      <trkpt lat="43.67575" lon="3.88784">
        <ele>95.118752</ele>
        <time>2021-10-17T09:12:18Z</time>
      </trkpt>
      <trkpt lat="43.67587" lon="3.88779">
        <ele>95.217873</ele>
        <time>2021-10-17T09:12:38Z</time>
      </trkpt>
      <trkpt lat="43.67599" lon="3.88769">
        <ele>95.962852</ele>
        <time>2021-10-17T09:12:48Z</time>
      </trkpt>
      <trkpt lat="43.67607" lon="3.88752">
        <ele>97.003777</ele>
        <time>2021-10-17T09:12:58Z</time>
      </trkpt>
      <trkpt lat="43.67619" lon="3.88739">
        <ele>98.356407</ele>
        <time>2021-10-17T09:13:08Z</time>
      </trkpt>
      <trkpt lat="43.67637" lon="3.88748">
        <ele>99.044518</ele>
        <time>2021-10-17T09:13:18Z</time>
      </trkpt>
      <trkpt lat="43.67662" lon="3.88747">
        <ele>99.186768</ele>
        <time>2021-10-17T09:13:28Z</time>
      </trkpt>
      <trkpt lat="43.67682" lon="3.88741">
        <ele>100.17025</ele>
        <time>2021-10-17T09:13:38Z</time>
      </trkpt>
      <trkpt lat="43.67704" lon="3.88736">
        <ele>101.179604</ele>
        <time>2021-10-17T09:13:48Z</time>
      </trkpt>
      <trkpt lat="43.67717" lon="3.88749">
        <ele>101.88208</ele>
        <time>2021-10-17T09:13:58Z</time>
      </trkpt>
      <trkpt lat="43.67732" lon="3.88778">
        <ele>100.764244</ele>
        <time>2021-10-17T09:14:08Z</time>
      </trkpt>
      <trkpt lat="43.67772" lon="3.88802">
        <ele>98.039467</ele>
        <time>2021-10-17T09:14:18Z</time>
      </trkpt>
      <trkpt lat="43.67797" lon="3.88771">
        <ele>97.664467</ele>
        <time>2021-10-17T09:14:28Z</time>
      </trkpt>
      <trkpt lat="43.67801" lon="3.88743">
        <ele>99.659172</ele>
        <time>2021-10-17T09:14:38Z</time>
      </trkpt>
      <trkpt lat="43.67802" lon="3.88719">
        <ele>100.988922</ele>
        <time>2021-10-17T09:14:48Z</time>
      </trkpt>
      <trkpt lat="43.67791" lon="3.88695">
        <ele>102.295929</ele>
        <time>2021-10-17T09:14:58Z</time>
      </trkpt>
      <trkpt lat="43.67771" lon="3.88688">
        <ele>104.051857</ele>
        <time>2021-10-17T09:15:08Z</time>
      </trkpt>
      <trkpt lat="43.67748" lon="3.88684">
        <ele>105.426033</ele>
        <time>2021-10-17T09:15:18Z</time>
      </trkpt>
      <trkpt lat="43.67726" lon="3.88668">
        <ele>106.000641</ele>
        <time>2021-10-17T09:15:28Z</time>
      </trkpt>
      <trkpt lat="43.67706" lon="3.88642">
        <ele>106.734566</ele>
        <time>2021-10-17T09:15:38Z</time>
      </trkpt>
      <trkpt lat="43.67687" lon="3.88623">
        <ele>107.36132</ele>
        <time>2021-10-17T09:15:48Z</time>
      </trkpt>
      <trkpt lat="43.67698" lon="3.886">
        <ele>108.052315</ele>
        <time>2021-10-17T09:15:58Z</time>
      </trkpt>
      <trkpt lat="43.67724" lon="3.88576">
        <ele>109.525749</ele>
        <time>2021-10-17T09:16:08Z</time>
      </trkpt>
      <trkpt lat="43.67754" lon="3.88567">
        <ele>111.415825</ele>
        <time>2021-10-17T09:16:18Z</time>
      </trkpt>
      <trkpt lat="43.67785" lon="3.88545">
        <ele>111.619225</ele>
        <time>2021-10-17T09:16:28Z</time>
      </trkpt>
      <trkpt lat="43.6782" lon="3.88494">
        <ele>110.567467</ele>
        <time>2021-10-17T09:16:38Z</time>
      </trkpt>
      <trkpt lat="43.67844" lon="3.88482">
        <ele>108.790161</ele>
        <time>2021-10-17T09:18:18Z</time>
      </trkpt>
      <trkpt lat="43.67859" lon="3.88451">
        <ele>108.18795</ele>
        <time>2021-10-17T09:18:38Z</time>
      </trkpt>
      <trkpt lat="43.67866" lon="3.88428">
        <ele>107.612</ele>
        <time>2021-10-17T09:18:48Z</time>
      </trkpt>
      <trkpt lat="43.67867" lon="3.8842">
        <ele>107.706657</ele>
        <time>2021-10-17T09:18:58Z</time>
      </trkpt>
      <trkpt lat="43.67865" lon="3.88412">
        <ele>107.765289</ele>
        <time>2021-10-17T09:19:08Z</time>
      </trkpt>
      <trkpt lat="43.67864" lon="3.88381">
        <ele>108.41272</ele>
        <time>2021-10-17T09:19:18Z</time>
      </trkpt>
      <trkpt lat="43.6786" lon="3.88357">
        <ele>109.304893</ele>
        <time>2021-10-17T09:19:28Z</time>
      </trkpt>
      <trkpt lat="43.67852" lon="3.88333">
        <ele>111.001587</ele>
        <time>2021-10-17T09:19:38Z</time>
      </trkpt>
      <trkpt lat="43.67858" lon="3.88306">
        <ele>112.434486</ele>
        <time>2021-10-17T09:19:48Z</time>
      </trkpt>
      <trkpt lat="43.67859" lon="3.88285">
        <ele>113.564003</ele>
        <time>2021-10-17T09:19:58Z</time>
      </trkpt>
      <trkpt lat="43.67861" lon="3.88266">
        <ele>114.03476</ele>
        <time>2021-10-17T09:20:08Z</time>
      </trkpt>
      <trkpt lat="43.67858" lon="3.88236">
        <ele>115.835602</ele>
        <time>2021-10-17T09:20:48Z</time>
      </trkpt>
      <trkpt lat="43.6786" lon="3.88217">
        <ele>116.118866</ele>
        <time>2021-10-17T09:21:08Z</time>
      </trkpt>
      <trkpt lat="43.6785" lon="3.88209">
        <ele>116.027771</ele>
        <time>2021-10-17T09:21:48Z</time>
      </trkpt>
      <trkpt lat="43.67837" lon="3.88197">
        <ele>116.117882</ele>
        <time>2021-10-17T09:22:08Z</time>
      </trkpt>
      <trkpt lat="43.6783" lon="3.88189">
        <ele>115.998589</ele>
        <time>2021-10-17T09:22:28Z</time>
      </trkpt>
      <trkpt lat="43.67815" lon="3.88193">
        <ele>116.302826</ele>
        <time>2021-10-17T09:22:38Z</time>
      </trkpt>
      <trkpt lat="43.67799" lon="3.88193">
        <ele>116.752403</ele>
        <time>2021-10-17T09:22:48Z</time>
      </trkpt>
      <trkpt lat="43.67811" lon="3.882">
        <ele>116.747803</ele>
        <time>2021-10-17T09:22:58Z</time>
      </trkpt>
      <trkpt lat="43.67812" lon="3.88188">
        <ele>116.755768</ele>
        <time>2021-10-17T09:23:18Z</time>
      </trkpt>
      <trkpt lat="43.67824" lon="3.88185">
        <ele>116.163628</ele>
        <time>2021-10-17T09:23:28Z</time>
      </trkpt>
      <trkpt lat="43.67833" lon="3.88181">
        <ele>115.928368</ele>
        <time>2021-10-17T09:23:38Z</time>
      </trkpt>
      <trkpt lat="43.67857" lon="3.88174">
        <ele>115.261925</ele>
        <time>2021-10-17T09:23:48Z</time>
      </trkpt>
      <trkpt lat="43.67877" lon="3.88165">
        <ele>114.592491</ele>
        <time>2021-10-17T09:23:58Z</time>
      </trkpt>
      <trkpt lat="43.67903" lon="3.88152">
        <ele>114.013069</ele>
        <time>2021-10-17T09:24:08Z</time>
      </trkpt>
      <trkpt lat="43.67929" lon="3.88139">
        <ele>113.703041</ele>
        <time>2021-10-17T09:24:18Z</time>
      </trkpt>
      <trkpt lat="43.67925" lon="3.88128">
        <ele>113.356606</ele>
        <time>2021-10-17T09:24:28Z</time>
      </trkpt>
      <trkpt lat="43.67904" lon="3.88118">
        <ele>112.778076</ele>
        <time>2021-10-17T09:24:38Z</time>
      </trkpt>
      <trkpt lat="43.67883" lon="3.88118">
        <ele>112.119789</ele>
        <time>2021-10-17T09:24:48Z</time>
      </trkpt>
      <trkpt lat="43.67855" lon="3.88119">
        <ele>111.914856</ele>
        <time>2021-10-17T09:24:58Z</time>
      </trkpt>
      <trkpt lat="43.67836" lon="3.88107">
        <ele>111.406403</ele>
        <time>2021-10-17T09:25:08Z</time>
      </trkpt>
      <trkpt lat="43.67818" lon="3.88083">
        <ele>109.126007</ele>
        <time>2021-10-17T09:25:28Z</time>
      </trkpt>
      <trkpt lat="43.67827" lon="3.88054">
        <ele>106.864037</ele>
        <time>2021-10-17T09:25:48Z</time>
      </trkpt>
      <trkpt lat="43.67835" lon="3.88033">
        <ele>105.33712</ele>
        <time>2021-10-17T09:26:08Z</time>
      </trkpt>
      <trkpt lat="43.6784" lon="3.87999">
        <ele>103.821068</ele>
        <time>2021-10-17T09:26:18Z</time>
      </trkpt>
      <trkpt lat="43.67835" lon="3.87981">
        <ele>100.468819</ele>
        <time>2021-10-17T09:26:28Z</time>
      </trkpt>
      <trkpt lat="43.67831" lon="3.87949">
        <ele>99.297081</ele>
        <time>2021-10-17T09:26:48Z</time>
      </trkpt>
      <trkpt lat="43.67816" lon="3.8793">
        <ele>95.647026</ele>
        <time>2021-10-17T09:26:58Z</time>
      </trkpt>
      <trkpt lat="43.67821" lon="3.87917">
        <ele>93.667183</ele>
        <time>2021-10-17T09:27:08Z</time>
      </trkpt>
      <trkpt lat="43.67823" lon="3.87893">
        <ele>92.285728</ele>
        <time>2021-10-17T09:27:18Z</time>
      </trkpt>
      <trkpt lat="43.67824" lon="3.87861">
        <ele>89.792168</ele>
        <time>2021-10-17T09:27:28Z</time>
      </trkpt>
      <trkpt lat="43.67807" lon="3.87841">
        <ele>87.093956</ele>
        <time>2021-10-17T09:27:38Z</time>
      </trkpt>
      <trkpt lat="43.67783" lon="3.87805">
        <ele>85.046684</ele>
        <time>2021-10-17T09:27:48Z</time>
      </trkpt>
      <trkpt lat="43.67753" lon="3.87752">
        <ele>82.416748</ele>
        <time>2021-10-17T09:27:58Z</time>
      </trkpt>
      <trkpt lat="43.67727" lon="3.87738">
        <ele>81.682671</ele>
        <time>2021-10-17T09:28:08Z</time>
      </trkpt>
      <trkpt lat="43.67708" lon="3.87727">
        <ele>84.097343</ele>
        <time>2021-10-17T09:28:28Z</time>
      </trkpt>
      <trkpt lat="43.67708" lon="3.87697">
        <ele>84.260933</ele>
        <time>2021-10-17T09:28:48Z</time>
      </trkpt>
      <trkpt lat="43.67707" lon="3.87654">
        <ele>82.965111</ele>
        <time>2021-10-17T09:28:58Z</time>
      </trkpt>
      <trkpt lat="43.677" lon="3.8762">
        <ele>82.764626</ele>
        <time>2021-10-17T09:29:08Z</time>
      </trkpt>
      <trkpt lat="43.6771" lon="3.87585">
        <ele>82.492188</ele>
        <time>2021-10-17T09:29:18Z</time>
      </trkpt>
      <trkpt lat="43.67732" lon="3.87537">
        <ele>80.62751</ele>
        <time>2021-10-17T09:29:28Z</time>
      </trkpt>
      <trkpt lat="43.67753" lon="3.87487">
        <ele>76.452072</ele>
        <time>2021-10-17T09:29:38Z</time>
      </trkpt>
      <trkpt lat="43.67778" lon="3.87435">
        <ele>72.44249</ele>
        <time>2021-10-17T09:29:48Z</time>
      </trkpt>
      <trkpt lat="43.67797" lon="3.87401">
        <ele>68.932129</ele>
        <time>2021-10-17T09:29:58Z</time>
      </trkpt>
      <trkpt lat="43.67825" lon="3.87364">
        <ele>67.110352</ele>
        <time>2021-10-17T09:30:38Z</time>
      </trkpt>
      <trkpt lat="43.67844" lon="3.87338">
        <ele>65.719093</ele>
        <time>2021-10-17T09:30:58Z</time>
      </trkpt>
      <trkpt lat="43.67867" lon="3.87354">
        <ele>65.848778</ele>
        <time>2021-10-17T09:31:08Z</time>
      </trkpt>
      <trkpt lat="43.67893" lon="3.87368">
        <ele>66.641663</ele>
        <time>2021-10-17T09:31:18Z</time>
      </trkpt>
      <trkpt lat="43.67924" lon="3.87376">
        <ele>66.751884</ele>
        <time>2021-10-17T09:31:38Z</time>
      </trkpt>
      <trkpt lat="43.67955" lon="3.87381">
        <ele>66.340919</ele>
        <time>2021-10-17T09:31:48Z</time>
      </trkpt>
      <trkpt lat="43.67984" lon="3.87388">
        <ele>66.054893</ele>
        <time>2021-10-17T09:31:58Z</time>
      </trkpt>
      <trkpt lat="43.68013" lon="3.87395">
        <ele>66.114326</ele>
        <time>2021-10-17T09:32:08Z</time>
      </trkpt>
      <trkpt lat="43.68042" lon="3.87402">
        <ele>66.157326</ele>
        <time>2021-10-17T09:32:18Z</time>
      </trkpt>
      <trkpt lat="43.68071" lon="3.87409">
        <ele>66.83651</ele>
        <time>2021-10-17T09:32:28Z</time>
      </trkpt>
      <trkpt lat="43.681" lon="3.87417">
        <ele>67.665855</ele>
        <time>2021-10-17T09:32:38Z</time>
      </trkpt>
      <trkpt lat="43.68131" lon="3.87425">
        <ele>68.899086</ele>
        <time>2021-10-17T09:32:48Z</time>
      </trkpt>
      <trkpt lat="43.6816" lon="3.87434">
        <ele>70.846031</ele>
        <time>2021-10-17T09:32:58Z</time>
      </trkpt>
      <trkpt lat="43.6819" lon="3.87441">
        <ele>72.841637</ele>
        <time>2021-10-17T09:33:08Z</time>
      </trkpt>
      <trkpt lat="43.68194" lon="3.87475">
        <ele>74.629372</ele>
        <time>2021-10-17T09:33:18Z</time>
      </trkpt>
      <trkpt lat="43.68184" lon="3.8751">
        <ele>74.115562</ele>
        <time>2021-10-17T09:33:28Z</time>
      </trkpt>
      <trkpt lat="43.68175" lon="3.87541">
        <ele>74.27787</ele>
        <time>2021-10-17T09:33:38Z</time>
      </trkpt>
      <trkpt lat="43.68164" lon="3.87576">
        <ele>74.713737</ele>
        <time>2021-10-17T09:33:48Z</time>
      </trkpt>
      <trkpt lat="43.68153" lon="3.87615">
        <ele>75.206596</ele>
        <time>2021-10-17T09:33:58Z</time>
      </trkpt>
      <trkpt lat="43.6814" lon="3.87655">
        <ele>75.986</ele>
        <time>2021-10-17T09:34:08Z</time>
      </trkpt>
      <trkpt lat="43.68126" lon="3.87692">
        <ele>76.866966</ele>
        <time>2021-10-17T09:34:18Z</time>
      </trkpt>
      <trkpt lat="43.68134" lon="3.87734">
        <ele>77.113777</ele>
        <time>2021-10-17T09:34:28Z</time>
      </trkpt>
      <trkpt lat="43.68152" lon="3.8778">
        <ele>77.807312</ele>
        <time>2021-10-17T09:34:38Z</time>
      </trkpt>
      <trkpt lat="43.68173" lon="3.87811">
        <ele>78.806221</ele>
        <time>2021-10-17T09:34:48Z</time>
      </trkpt>
      <trkpt lat="43.68161" lon="3.87799">
        <ele>79.27433</ele>
        <time>2021-10-17T09:34:58Z</time>
      </trkpt>
      <trkpt lat="43.68153" lon="3.878">
        <ele>78.653229</ele>
        <time>2021-10-17T09:35:08Z</time>
      </trkpt>
      <trkpt lat="43.68156" lon="3.87823">
        <ele>79.017036</ele>
        <time>2021-10-17T09:35:18Z</time>
      </trkpt>
      <trkpt lat="43.68163" lon="3.87806">
        <ele>78.831291</ele>
        <time>2021-10-17T09:36:28Z</time>
      </trkpt>
      <trkpt lat="43.68188" lon="3.87826">
        <ele>79.651459</ele>
        <time>2021-10-17T09:36:48Z</time>
      </trkpt>
      <trkpt lat="43.68212" lon="3.87841">
        <ele>82.246544</ele>
        <time>2021-10-17T09:36:58Z</time>
      </trkpt>
      <trkpt lat="43.68237" lon="3.87857">
        <ele>85.179993</ele>
        <time>2021-10-17T09:37:08Z</time>
      </trkpt>
      <trkpt lat="43.68261" lon="3.8787">
        <ele>87.634941</ele>
        <time>2021-10-17T09:37:18Z</time>
      </trkpt>
      <trkpt lat="43.68291" lon="3.87868">
        <ele>89.276268</ele>
        <time>2021-10-17T09:37:28Z</time>
      </trkpt>
      <trkpt lat="43.68318" lon="3.87868">
        <ele>90.065002</ele>
        <time>2021-10-17T09:37:38Z</time>
      </trkpt>
      <trkpt lat="43.68339" lon="3.8788">
        <ele>90.611084</ele>
        <time>2021-10-17T09:37:48Z</time>
      </trkpt>
      <trkpt lat="43.68361" lon="3.87883">
        <ele>90.891907</ele>
        <time>2021-10-17T09:37:58Z</time>
      </trkpt>
      <trkpt lat="43.68383" lon="3.87892">
        <ele>91.004814</ele>
        <time>2021-10-17T09:38:08Z</time>
      </trkpt>
      <trkpt lat="43.68407" lon="3.87903">
        <ele>91.266487</ele>
        <time>2021-10-17T09:38:18Z</time>
      </trkpt>
      <trkpt lat="43.68428" lon="3.87907">
        <ele>91.374611</ele>
        <time>2021-10-17T09:38:28Z</time>
      </trkpt>
      <trkpt lat="43.68444" lon="3.87898">
        <ele>91.32093</ele>
        <time>2021-10-17T09:38:38Z</time>
      </trkpt>
      <trkpt lat="43.68461" lon="3.87886">
        <ele>91.847961</ele>
        <time>2021-10-17T09:38:48Z</time>
      </trkpt>
      <trkpt lat="43.68476" lon="3.87874">
        <ele>92.763268</ele>
        <time>2021-10-17T09:38:58Z</time>
      </trkpt>
      <trkpt lat="43.68491" lon="3.8787">
        <ele>93.780922</ele>
        <time>2021-10-17T09:39:08Z</time>
      </trkpt>
      <trkpt lat="43.68506" lon="3.87866">
        <ele>94.659912</ele>
        <time>2021-10-17T09:39:18Z</time>
      </trkpt>
      <trkpt lat="43.68519" lon="3.87858">
        <ele>95.652504</ele>
        <time>2021-10-17T09:39:28Z</time>
      </trkpt>
      <trkpt lat="43.68532" lon="3.87863">
        <ele>96.645149</ele>
        <time>2021-10-17T09:39:38Z</time>
      </trkpt>
      <trkpt lat="43.68535" lon="3.87891">
        <ele>97.403839</ele>
        <time>2021-10-17T09:39:48Z</time>
      </trkpt>
      <trkpt lat="43.68535" lon="3.8792">
        <ele>97.438965</ele>
        <time>2021-10-17T09:39:58Z</time>
      </trkpt>
      <trkpt lat="43.68534" lon="3.87953">
        <ele>97.384766</ele>
        <time>2021-10-17T09:40:08Z</time>
      </trkpt>
      <trkpt lat="43.68538" lon="3.87989">
        <ele>98.033974</ele>
        <time>2021-10-17T09:40:18Z</time>
      </trkpt>
      <trkpt lat="43.68533" lon="3.88041">
        <ele>100.065422</ele>
        <time>2021-10-17T09:40:28Z</time>
      </trkpt>
      <trkpt lat="43.6852" lon="3.88068">
        <ele>101.992218</ele>
        <time>2021-10-17T09:40:38Z</time>
      </trkpt>
      <trkpt lat="43.68519" lon="3.88107">
        <ele>104.198662</ele>
        <time>2021-10-17T09:40:48Z</time>
      </trkpt>
      <trkpt lat="43.68529" lon="3.88137">
        <ele>107.493927</ele>
        <time>2021-10-17T09:40:58Z</time>
      </trkpt>
      <trkpt lat="43.6854" lon="3.88161">
        <ele>109.863503</ele>
        <time>2021-10-17T09:41:08Z</time>
      </trkpt>
      <trkpt lat="43.6855" lon="3.88183">
        <ele>111.855278</ele>
        <time>2021-10-17T09:41:18Z</time>
      </trkpt>
      <trkpt lat="43.68558" lon="3.88201">
        <ele>113.381165</ele>
        <time>2021-10-17T09:41:28Z</time>
      </trkpt>
      <trkpt lat="43.68567" lon="3.8822">
        <ele>114.766258</ele>
        <time>2021-10-17T09:41:38Z</time>
      </trkpt>
      <trkpt lat="43.68573" lon="3.88237">
        <ele>116.058449</ele>
        <time>2021-10-17T09:41:48Z</time>
      </trkpt>
      <trkpt lat="43.68576" lon="3.88256">
        <ele>116.722618</ele>
        <time>2021-10-17T09:41:58Z</time>
      </trkpt>
      <trkpt lat="43.68598" lon="3.88269">
        <ele>118.093994</ele>
        <time>2021-10-17T09:43:08Z</time>
      </trkpt>
      <trkpt lat="43.68621" lon="3.88269">
        <ele>119.132813</ele>
        <time>2021-10-17T09:43:28Z</time>
      </trkpt>
      <trkpt lat="43.68646" lon="3.88275">
        <ele>120.254395</ele>
        <time>2021-10-17T09:43:38Z</time>
      </trkpt>
      <trkpt lat="43.68669" lon="3.88287">
        <ele>121.767609</ele>
        <time>2021-10-17T09:43:48Z</time>
      </trkpt>
      <trkpt lat="43.68685" lon="3.88289">
        <ele>123.016167</ele>
        <time>2021-10-17T09:43:58Z</time>
      </trkpt>
      <trkpt lat="43.68698" lon="3.88298">
        <ele>123.815285</ele>
        <time>2021-10-17T09:44:08Z</time>
      </trkpt>
      <trkpt lat="43.68714" lon="3.88305">
        <ele>124.675667</ele>
        <time>2021-10-17T09:44:18Z</time>
      </trkpt>
      <trkpt lat="43.68731" lon="3.88305">
        <ele>125.46109</ele>
        <time>2021-10-17T09:44:28Z</time>
      </trkpt>
      <trkpt lat="43.68739" lon="3.88287">
        <ele>125.636269</ele>
        <time>2021-10-17T09:44:38Z</time>
      </trkpt>
      <trkpt lat="43.68747" lon="3.88269">
        <ele>125.528351</ele>
        <time>2021-10-17T09:44:48Z</time>
      </trkpt>
      <trkpt lat="43.68758" lon="3.88251">
        <ele>125.651642</ele>
        <time>2021-10-17T09:44:58Z</time>
      </trkpt>
      <trkpt lat="43.68772" lon="3.88234">
        <ele>126.017357</ele>
        <time>2021-10-17T09:45:08Z</time>
      </trkpt>
      <trkpt lat="43.68769" lon="3.88217">
        <ele>126.517365</ele>
        <time>2021-10-17T09:46:18Z</time>
      </trkpt>
      <trkpt lat="43.6876" lon="3.88191">
        <ele>125.785057</ele>
        <time>2021-10-17T09:46:38Z</time>
      </trkpt>
      <trkpt lat="43.68748" lon="3.88168">
        <ele>124.940544</ele>
        <time>2021-10-17T09:46:48Z</time>
      </trkpt>
      <trkpt lat="43.68729" lon="3.88171">
        <ele>123.406067</ele>
        <time>2021-10-17T09:46:58Z</time>
      </trkpt>
      <trkpt lat="43.68714" lon="3.88187">
        <ele>122.19986</ele>
        <time>2021-10-17T09:47:08Z</time>
      </trkpt>
      <trkpt lat="43.68705" lon="3.88172">
        <ele>121.219017</ele>
        <time>2021-10-17T09:47:18Z</time>
      </trkpt>
      <trkpt lat="43.68708" lon="3.88141">
        <ele>119.921875</ele>
        <time>2021-10-17T09:47:48Z</time>
      </trkpt>
      <trkpt lat="43.68714" lon="3.88128">
        <ele>120.048683</ele>
        <time>2021-10-17T09:48:08Z</time>
      </trkpt>
      <trkpt lat="43.68721" lon="3.881">
        <ele>120.222565</ele>
        <time>2021-10-17T09:48:18Z</time>
      </trkpt>
      <trkpt lat="43.6872" lon="3.88064">
        <ele>120.273506</ele>
        <time>2021-10-17T09:48:38Z</time>
      </trkpt>
      <trkpt lat="43.68725" lon="3.88028">
        <ele>121.37207</ele>
        <time>2021-10-17T09:48:48Z</time>
      </trkpt>
      <trkpt lat="43.68708" lon="3.88">
        <ele>122.225182</ele>
        <time>2021-10-17T09:48:58Z</time>
      </trkpt>
      <trkpt lat="43.68686" lon="3.87964">
        <ele>119.578339</ele>
        <time>2021-10-17T09:49:08Z</time>
      </trkpt>
      <trkpt lat="43.68694" lon="3.87919">
        <ele>118.49472</ele>
        <time>2021-10-17T09:49:18Z</time>
      </trkpt>
      <trkpt lat="43.68713" lon="3.87903">
        <ele>119.609993</ele>
        <time>2021-10-17T09:49:28Z</time>
      </trkpt>
      <trkpt lat="43.68731" lon="3.87884">
        <ele>121.184746</ele>
        <time>2021-10-17T09:49:38Z</time>
      </trkpt>
      <trkpt lat="43.68753" lon="3.87864">
        <ele>122.460609</ele>
        <time>2021-10-17T09:49:48Z</time>
      </trkpt>
      <trkpt lat="43.68768" lon="3.87854">
        <ele>124.072266</ele>
        <time>2021-10-17T09:49:58Z</time>
      </trkpt>
      <trkpt lat="43.68778" lon="3.87851">
        <ele>125.008789</ele>
        <time>2021-10-17T09:50:28Z</time>
      </trkpt>
      <trkpt lat="43.68804" lon="3.87842">
        <ele>125.83651</ele>
        <time>2021-10-17T09:50:48Z</time>
      </trkpt>
      <trkpt lat="43.68819" lon="3.87829">
        <ele>126.170006</ele>
        <time>2021-10-17T09:50:58Z</time>
      </trkpt>
      <trkpt lat="43.68826" lon="3.87827">
        <ele>126.19857</ele>
        <time>2021-10-17T09:51:08Z</time>
      </trkpt>
      <trkpt lat="43.68835" lon="3.87832">
        <ele>127.421791</ele>
        <time>2021-10-17T09:51:48Z</time>
      </trkpt>
      <trkpt lat="43.68831" lon="3.87828">
        <ele>127.013916</ele>
        <time>2021-10-17T09:52:08Z</time>
      </trkpt>
      <trkpt lat="43.68816" lon="3.87829">
        <ele>126.37085</ele>
        <time>2021-10-17T09:52:18Z</time>
      </trkpt>
      <trkpt lat="43.68802" lon="3.87841">
        <ele>126.170082</ele>
        <time>2021-10-17T09:52:28Z</time>
      </trkpt>
      <trkpt lat="43.68786" lon="3.87844">
        <ele>125.999184</ele>
        <time>2021-10-17T09:52:38Z</time>
      </trkpt>
      <trkpt lat="43.68764" lon="3.87855">
        <ele>125.148766</ele>
        <time>2021-10-17T09:52:48Z</time>
      </trkpt>
      <trkpt lat="43.68769" lon="3.87883">
        <ele>124.732094</ele>
        <time>2021-10-17T09:52:58Z</time>
      </trkpt>
      <trkpt lat="43.68778" lon="3.87915">
        <ele>127.577827</ele>
        <time>2021-10-17T09:53:08Z</time>
      </trkpt>
      <trkpt lat="43.68778" lon="3.8794">
        <ele>130.075485</ele>
        <time>2021-10-17T09:53:18Z</time>
      </trkpt>
      <trkpt lat="43.68772" lon="3.87968">
        <ele>130.84404</ele>
        <time>2021-10-17T09:53:28Z</time>
      </trkpt>
      <trkpt lat="43.68769" lon="3.8801">
        <ele>129.520187</ele>
        <time>2021-10-17T09:53:38Z</time>
      </trkpt>
      <trkpt lat="43.6877" lon="3.88064">
        <ele>128.106125</ele>
        <time>2021-10-17T09:53:48Z</time>
      </trkpt>
      <trkpt lat="43.68764" lon="3.88108">
        <ele>126.41729</ele>
        <time>2021-10-17T09:53:58Z</time>
      </trkpt>
      <trkpt lat="43.68756" lon="3.88163">
        <ele>125.15435</ele>
        <time>2021-10-17T09:54:08Z</time>
      </trkpt>
      <trkpt lat="43.68736" lon="3.88167">
        <ele>124.077789</ele>
        <time>2021-10-17T09:56:48Z</time>
      </trkpt>
      <trkpt lat="43.6872" lon="3.88179">
        <ele>122.353325</ele>
        <time>2021-10-17T09:57:08Z</time>
      </trkpt>
      <trkpt lat="43.68695" lon="3.88186">
        <ele>121.571877</ele>
        <time>2021-10-17T09:57:18Z</time>
      </trkpt>
      <trkpt lat="43.68697" lon="3.88196">
        <ele>120.795647</ele>
        <time>2021-10-17T09:57:28Z</time>
      </trkpt>
      <trkpt lat="43.68685" lon="3.88239">
        <ele>121.027641</ele>
        <time>2021-10-17T09:57:48Z</time>
      </trkpt>
      <trkpt lat="43.68656" lon="3.88275">
        <ele>122.045677</ele>
        <time>2021-10-17T09:57:58Z</time>
      </trkpt>
      <trkpt lat="43.68614" lon="3.88267">
        <ele>120.374855</ele>
        <time>2021-10-17T09:58:08Z</time>
      </trkpt>
      <trkpt lat="43.68576" lon="3.88274">
        <ele>118.548584</ele>
        <time>2021-10-17T09:58:18Z</time>
      </trkpt>
      <trkpt lat="43.68538" lon="3.88276">
        <ele>118.745888</ele>
        <time>2021-10-17T09:58:28Z</time>
      </trkpt>
      <trkpt lat="43.68499" lon="3.88268">
        <ele>119.751595</ele>
        <time>2021-10-17T09:58:38Z</time>
      </trkpt>
      <trkpt lat="43.68464" lon="3.88258">
        <ele>120.922272</ele>
        <time>2021-10-17T09:58:48Z</time>
      </trkpt>
      <trkpt lat="43.68438" lon="3.88253">
        <ele>121.925514</ele>
        <time>2021-10-17T09:58:58Z</time>
      </trkpt>
      <trkpt lat="43.68416" lon="3.88251">
        <ele>121.959236</ele>
        <time>2021-10-17T09:59:08Z</time>
      </trkpt>
      <trkpt lat="43.68385" lon="3.88254">
        <ele>121.115669</ele>
        <time>2021-10-17T09:59:18Z</time>
      </trkpt>
      <trkpt lat="43.68342" lon="3.88256">
        <ele>119.872627</ele>
        <time>2021-10-17T09:59:28Z</time>
      </trkpt>
      <trkpt lat="43.68298" lon="3.88263">
        <ele>118.114357</ele>
        <time>2021-10-17T09:59:38Z</time>
      </trkpt>
      <trkpt lat="43.68264" lon="3.88276">
        <ele>118.113197</ele>
        <time>2021-10-17T09:59:48Z</time>
      </trkpt>
      <trkpt lat="43.68229" lon="3.88283">
        <ele>119.273598</ele>
        <time>2021-10-17T09:59:58Z</time>
      </trkpt>
      <trkpt lat="43.68199" lon="3.88275">
        <ele>120.22451</ele>
        <time>2021-10-17T10:00:08Z</time>
      </trkpt>
      <trkpt lat="43.68179" lon="3.88262">
        <ele>120.618011</ele>
        <time>2021-10-17T10:00:18Z</time>
      </trkpt>
      <trkpt lat="43.68155" lon="3.88244">
        <ele>120.638466</ele>
        <time>2021-10-17T10:01:18Z</time>
      </trkpt>
      <trkpt lat="43.68129" lon="3.88225">
        <ele>119.850487</ele>
        <time>2021-10-17T10:01:38Z</time>
      </trkpt>
      <trkpt lat="43.68101" lon="3.88205">
        <ele>119.003258</ele>
        <time>2021-10-17T10:01:48Z</time>
      </trkpt>
      <trkpt lat="43.68072" lon="3.88179">
        <ele>117.857361</ele>
        <time>2021-10-17T10:01:58Z</time>
      </trkpt>
      <trkpt lat="43.68031" lon="3.88155">
        <ele>116.52179</ele>
        <time>2021-10-17T10:02:08Z</time>
      </trkpt>
      <trkpt lat="43.67984" lon="3.88137">
        <ele>115.081871</ele>
        <time>2021-10-17T10:02:18Z</time>
      </trkpt>
      <trkpt lat="43.67941" lon="3.88145">
        <ele>114.14193</ele>
        <time>2021-10-17T10:02:28Z</time>
      </trkpt>
      <trkpt lat="43.679" lon="3.88159">
        <ele>113.990395</ele>
        <time>2021-10-17T10:02:38Z</time>
      </trkpt>
      <trkpt lat="43.67863" lon="3.88176">
        <ele>114.233223</ele>
        <time>2021-10-17T10:02:48Z</time>
      </trkpt>
      <trkpt lat="43.67823" lon="3.8819">
        <ele>115.377464</ele>
        <time>2021-10-17T10:02:58Z</time>
      </trkpt>
      <trkpt lat="43.67785" lon="3.88201">
        <ele>116.680397</ele>
        <time>2021-10-17T10:03:08Z</time>
      </trkpt>
      <trkpt lat="43.67756" lon="3.88211">
        <ele>118.326775</ele>
        <time>2021-10-17T10:03:18Z</time>
      </trkpt>
      <trkpt lat="43.67725" lon="3.88228">
        <ele>119.756348</ele>
        <time>2021-10-17T10:03:28Z</time>
      </trkpt>
      <trkpt lat="43.67688" lon="3.88243">
        <ele>119.784019</ele>
        <time>2021-10-17T10:03:38Z</time>
      </trkpt>
      <trkpt lat="43.67643" lon="3.88257">
        <ele>118.445427</ele>
        <time>2021-10-17T10:03:48Z</time>
      </trkpt>
      <trkpt lat="43.67606" lon="3.88262">
        <ele>116.953407</ele>
        <time>2021-10-17T10:03:58Z</time>
      </trkpt>
      <trkpt lat="43.67568" lon="3.88266">
        <ele>116.851807</ele>
        <time>2021-10-17T10:04:08Z</time>
      </trkpt>
      <trkpt lat="43.67525" lon="3.88267">
        <ele>117.443787</ele>
        <time>2021-10-17T10:04:18Z</time>
      </trkpt>
      <trkpt lat="43.67489" lon="3.88264">
        <ele>118.587379</ele>
        <time>2021-10-17T10:04:28Z</time>
      </trkpt>
      <trkpt lat="43.67453" lon="3.88256">
        <ele>119.689209</ele>
        <time>2021-10-17T10:04:38Z</time>
      </trkpt>
      <trkpt lat="43.67425" lon="3.88252">
        <ele>120.974487</ele>
        <time>2021-10-17T10:04:48Z</time>
      </trkpt>
      <trkpt lat="43.67397" lon="3.88238">
        <ele>122.257103</ele>
        <time>2021-10-17T10:04:58Z</time>
      </trkpt>
      <trkpt lat="43.6737" lon="3.88217">
        <ele>123.512978</ele>
        <time>2021-10-17T10:05:08Z</time>
      </trkpt>
      <trkpt lat="43.67335" lon="3.88185">
        <ele>123.788353</ele>
        <time>2021-10-17T10:05:18Z</time>
      </trkpt>
      <trkpt lat="43.67301" lon="3.8815">
        <ele>122.576332</ele>
        <time>2021-10-17T10:05:28Z</time>
      </trkpt>
      <trkpt lat="43.67271" lon="3.88113">
        <ele>120.079262</ele>
        <time>2021-10-17T10:05:38Z</time>
      </trkpt>
      <trkpt lat="43.67232" lon="3.88043">
        <ele>115.905128</ele>
        <time>2021-10-17T10:05:48Z</time>
      </trkpt>
      <trkpt lat="43.6721" lon="3.87996">
        <ele>112.150055</ele>
        <time>2021-10-17T10:05:58Z</time>
      </trkpt>
      <trkpt lat="43.67189" lon="3.87984">
        <ele>111.487</ele>
        <time>2021-10-17T10:06:08Z</time>
      </trkpt>
      <trkpt lat="43.67153" lon="3.87937">
        <ele>109.264313</ele>
        <time>2021-10-17T10:06:18Z</time>
      </trkpt>
      <trkpt lat="43.6713" lon="3.87883">
        <ele>108.02179</ele>
        <time>2021-10-17T10:06:28Z</time>
      </trkpt>
      <trkpt lat="43.67116" lon="3.87838">
        <ele>107.480957</ele>
        <time>2021-10-17T10:06:38Z</time>
      </trkpt>
      <trkpt lat="43.6711" lon="3.87791">
        <ele>107.587746</ele>
        <time>2021-10-17T10:06:48Z</time>
      </trkpt>
      <trkpt lat="43.67104" lon="3.87737">
        <ele>108.030365</ele>
        <time>2021-10-17T10:06:58Z</time>
      </trkpt>
      <trkpt lat="43.67104" lon="3.87676">
        <ele>109.124519</ele>
        <time>2021-10-17T10:07:08Z</time>
      </trkpt>
      <trkpt lat="43.67092" lon="3.87622">
        <ele>109.842308</ele>
        <time>2021-10-17T10:07:18Z</time>
      </trkpt>
      <trkpt lat="43.67084" lon="3.87576">
        <ele>110.25071</ele>
        <time>2021-10-17T10:07:28Z</time>
      </trkpt>
      <trkpt lat="43.67081" lon="3.87529">
        <ele>110.966278</ele>
        <time>2021-10-17T10:07:38Z</time>
      </trkpt>
      <trkpt lat="43.67084" lon="3.87476">
        <ele>112.187584</ele>
        <time>2021-10-17T10:07:48Z</time>
      </trkpt>
      <trkpt lat="43.6709" lon="3.87443">
        <ele>113.7089</ele>
        <time>2021-10-17T10:07:58Z</time>
      </trkpt>
      <trkpt lat="43.67082" lon="3.8744">
        <ele>114.222191</ele>
        <time>2021-10-17T10:08:08Z</time>
      </trkpt>
      <trkpt lat="43.67081" lon="3.87505">
        <ele>113.54612</ele>
        <time>2021-10-17T10:08:18Z</time>
      </trkpt>
      <trkpt lat="43.67088" lon="3.8758">
        <ele>111.306602</ele>
        <time>2021-10-17T10:08:28Z</time>
      </trkpt>
      <trkpt lat="43.67101" lon="3.87641">
        <ele>110.296227</ele>
        <time>2021-10-17T10:08:38Z</time>
      </trkpt>
      <trkpt lat="43.6712" lon="3.87688">
        <ele>110.17337</ele>
        <time>2021-10-17T10:08:48Z</time>
      </trkpt>
      <trkpt lat="43.67152" lon="3.87683">
        <ele>111.720215</ele>
        <time>2021-10-17T10:08:58Z</time>
      </trkpt>
      <trkpt lat="43.67176" lon="3.87678">
        <ele>112.766548</ele>
        <time>2021-10-17T10:09:08Z</time>
      </trkpt>
      <trkpt lat="43.67197" lon="3.87685">
        <ele>113.594482</ele>
        <time>2021-10-17T10:09:28Z</time>
      </trkpt>
      <trkpt lat="43.6722" lon="3.87699">
        <ele>113.366371</ele>
        <time>2021-10-17T10:09:48Z</time>
      </trkpt>
      <trkpt lat="43.67247" lon="3.87697">
        <ele>110.882591</ele>
        <time>2021-10-17T10:09:58Z</time>
      </trkpt>
      <trkpt lat="43.67283" lon="3.87666">
        <ele>107.962868</ele>
        <time>2021-10-17T10:10:08Z</time>
      </trkpt>
      <trkpt lat="43.67312" lon="3.87638">
        <ele>101.974602</ele>
        <time>2021-10-17T10:10:18Z</time>
      </trkpt>
      <trkpt lat="43.67339" lon="3.87636">
        <ele>96.192574</ele>
        <time>2021-10-17T10:10:28Z</time>
      </trkpt>
      <trkpt lat="43.67365" lon="3.87628">
        <ele>92.47451</ele>
        <time>2021-10-17T10:10:38Z</time>
      </trkpt>
      <trkpt lat="43.67384" lon="3.87622">
        <ele>90.107971</ele>
        <time>2021-10-17T10:10:48Z</time>
      </trkpt>
      <trkpt lat="43.67408" lon="3.8761">
        <ele>86.774994</ele>
        <time>2021-10-17T10:10:58Z</time>
      </trkpt>
      <trkpt lat="43.67419" lon="3.87651">
        <ele>86.508667</ele>
        <time>2021-10-17T10:12:28Z</time>
      </trkpt>
      <trkpt lat="43.67415" lon="3.8769">
        <ele>89.671791</ele>
        <time>2021-10-17T10:12:58Z</time>
      </trkpt>
      <trkpt lat="43.67421" lon="3.87709">
        <ele>90.223228</ele>
        <time>2021-10-17T10:13:18Z</time>
      </trkpt>
      <trkpt lat="43.6742" lon="3.87728">
        <ele>90.790283</ele>
        <time>2021-10-17T10:13:28Z</time>
      </trkpt>
      <trkpt lat="43.6742" lon="3.8775">
        <ele>91.562416</ele>
        <time>2021-10-17T10:13:38Z</time>
      </trkpt>
      <trkpt lat="43.67416" lon="3.87765">
        <ele>92.769531</ele>
        <time>2021-10-17T10:13:48Z</time>
      </trkpt>
      <trkpt lat="43.67412" lon="3.87778">
        <ele>93.376869</ele>
        <time>2021-10-17T10:14:18Z</time>
      </trkpt>
      <trkpt lat="43.67407" lon="3.87799">
        <ele>94.519043</ele>
        <time>2021-10-17T10:14:58Z</time>
      </trkpt>
      <trkpt lat="43.67413" lon="3.87817">
        <ele>94.587158</ele>
        <time>2021-10-17T10:15:18Z</time>
      </trkpt>
      <trkpt lat="43.67411" lon="3.87844">
        <ele>95.389061</ele>
        <time>2021-10-17T10:15:28Z</time>
      </trkpt>
      <trkpt lat="43.67424" lon="3.87848">
        <ele>95.198975</ele>
        <time>2021-10-17T10:15:38Z</time>
      </trkpt>
      <trkpt lat="43.67432" lon="3.87863">
        <ele>94.717613</ele>
        <time>2021-10-17T10:15:48Z</time>
      </trkpt>
      <trkpt lat="43.6744" lon="3.87873">
        <ele>94.566734</ele>
        <time>2021-10-17T10:15:58Z</time>
      </trkpt>
      <trkpt lat="43.67454" lon="3.87882">
        <ele>93.76017</ele>
        <time>2021-10-17T10:16:08Z</time>
      </trkpt>
      <trkpt lat="43.67455" lon="3.87841">
        <ele>92.678139</ele>
        <time>2021-10-17T10:17:18Z</time>
      </trkpt>
      <trkpt lat="43.67452" lon="3.87812">
        <ele>92.098145</ele>
        <time>2021-10-17T10:17:38Z</time>
      </trkpt>
      <trkpt lat="43.67462" lon="3.87808">
        <ele>91.24276</ele>
        <time>2021-10-17T10:17:48Z</time>
      </trkpt>
      <trkpt lat="43.67469" lon="3.87788">
        <ele>90.400963</ele>
        <time>2021-10-17T10:17:58Z</time>
      </trkpt>
      <trkpt lat="43.67477" lon="3.87758">
        <ele>89.138023</ele>
        <time>2021-10-17T10:18:08Z</time>
      </trkpt>
      <trkpt lat="43.67489" lon="3.87737">
        <ele>87.953651</ele>
        <time>2021-10-17T10:18:18Z</time>
      </trkpt>
      <trkpt lat="43.67508" lon="3.87705">
        <ele>87.656738</ele>
        <time>2021-10-17T10:18:28Z</time>
      </trkpt>
      <trkpt lat="43.67527" lon="3.8766">
        <ele>87.09269</ele>
        <time>2021-10-17T10:18:38Z</time>
      </trkpt>
      <trkpt lat="43.6755" lon="3.87661">
        <ele>86.157387</ele>
        <time>2021-10-17T10:18:48Z</time>
      </trkpt>
      <trkpt lat="43.6755" lon="3.87684">
        <ele>87.691124</ele>
        <time>2021-10-17T10:19:58Z</time>
      </trkpt>
      <trkpt lat="43.67545" lon="3.87704">
        <ele>88.646698</ele>
        <time>2021-10-17T10:20:18Z</time>
      </trkpt>
      <trkpt lat="43.67541" lon="3.87727">
        <ele>89.41333</ele>
        <time>2021-10-17T10:20:28Z</time>
      </trkpt>
      <trkpt lat="43.67537" lon="3.87746">
        <ele>90.000244</ele>
        <time>2021-10-17T10:20:38Z</time>
      </trkpt>
      <trkpt lat="43.6754" lon="3.87764">
        <ele>90.846748</ele>
        <time>2021-10-17T10:20:48Z</time>
      </trkpt>
      <trkpt lat="43.67542" lon="3.87784">
        <ele>91.814484</ele>
        <time>2021-10-17T10:20:58Z</time>
      </trkpt>
      <trkpt lat="43.67544" lon="3.87802">
        <ele>92.696968</ele>
        <time>2021-10-17T10:21:08Z</time>
      </trkpt>
      <trkpt lat="43.67544" lon="3.87827">
        <ele>93.710091</ele>
        <time>2021-10-17T10:21:18Z</time>
      </trkpt>
      <trkpt lat="43.67544" lon="3.87856">
        <ele>94.243324</ele>
        <time>2021-10-17T10:21:28Z</time>
      </trkpt>
      <trkpt lat="43.67545" lon="3.8789">
        <ele>94.676414</ele>
        <time>2021-10-17T10:21:38Z</time>
      </trkpt>
      <trkpt lat="43.67545" lon="3.87917">
        <ele>95.213387</ele>
        <time>2021-10-17T10:21:48Z</time>
      </trkpt>
      <trkpt lat="43.67547" lon="3.87953">
        <ele>95.654457</ele>
        <time>2021-10-17T10:21:58Z</time>
      </trkpt>
      <trkpt lat="43.67528" lon="3.87979">
        <ele>96.989258</ele>
        <time>2021-10-17T10:23:18Z</time>
      </trkpt>
      <trkpt lat="43.67514" lon="3.87997">
        <ele>97.328407</ele>
        <time>2021-10-17T10:23:38Z</time>
      </trkpt>
      <trkpt lat="43.67516" lon="3.88037">
        <ele>98.836754</ele>
        <time>2021-10-17T10:23:58Z</time>
      </trkpt>
      <trkpt lat="43.67506" lon="3.88072">
        <ele>102.451874</ele>
        <time>2021-10-17T10:24:08Z</time>
      </trkpt>
      <trkpt lat="43.67502" lon="3.8809">
        <ele>104.557076</ele>
        <time>2021-10-17T10:24:18Z</time>
      </trkpt>
      <trkpt lat="43.67498" lon="3.88103">
        <ele>105.983269</ele>
        <time>2021-10-17T10:24:28Z</time>
      </trkpt>
      <trkpt lat="43.67487" lon="3.88104">
        <ele>107.286926</ele>
        <time>2021-10-17T10:24:38Z</time>
      </trkpt>
      <trkpt lat="43.67472" lon="3.881">
        <ele>107.099709</ele>
        <time>2021-10-17T10:24:48Z</time>
      </trkpt>
      <trkpt lat="43.67462" lon="3.88115">
        <ele>109.371704</ele>
        <time>2021-10-17T10:24:58Z</time>
      </trkpt>
      <trkpt lat="43.6746" lon="3.88122">
        <ele>110.573021</ele>
        <time>2021-10-17T10:25:18Z</time>
      </trkpt>
      <trkpt lat="43.67463" lon="3.88129">
        <ele>111.157654</ele>
        <time>2021-10-17T10:25:28Z</time>
      </trkpt>
      <trkpt lat="43.67458" lon="3.88136">
        <ele>112.009148</ele>
        <time>2021-10-17T10:25:38Z</time>
      </trkpt>
      <trkpt lat="43.67455" lon="3.8815">
        <ele>114.000694</ele>
        <time>2021-10-17T10:25:58Z</time>
      </trkpt>
      <trkpt lat="43.6745" lon="3.88162">
        <ele>115.266602</ele>
        <time>2021-10-17T10:26:28Z</time>
      </trkpt>
      <trkpt lat="43.67456" lon="3.8818">
        <ele>116.503975</ele>
        <time>2021-10-17T10:26:48Z</time>
      </trkpt>
      <trkpt lat="43.6745" lon="3.8819">
        <ele>117.287498</ele>
        <time>2021-10-17T10:26:58Z</time>
      </trkpt>
      <trkpt lat="43.67434" lon="3.88199">
        <ele>118.699242</ele>
        <time>2021-10-17T10:27:08Z</time>
      </trkpt>
      <trkpt lat="43.67419" lon="3.88207">
        <ele>120.260048</ele>
        <time>2021-10-17T10:27:18Z</time>
      </trkpt>
      <trkpt lat="43.67407" lon="3.8822">
        <ele>121.746712</ele>
        <time>2021-10-17T10:27:28Z</time>
      </trkpt>
      <trkpt lat="43.67394" lon="3.88241">
        <ele>122.938484</ele>
        <time>2021-10-17T10:30:18Z</time>
      </trkpt>
      <trkpt lat="43.67369" lon="3.88221">
        <ele>123.546638</ele>
        <time>2021-10-17T10:30:38Z</time>
      </trkpt>
      <trkpt lat="43.67335" lon="3.88189">
        <ele>123.905205</ele>
        <time>2021-10-17T10:30:48Z</time>
      </trkpt>
      <trkpt lat="43.67299" lon="3.88148">
        <ele>122.691734</ele>
        <time>2021-10-17T10:30:58Z</time>
      </trkpt>
      <trkpt lat="43.67264" lon="3.88102">
        <ele>119.686684</ele>
        <time>2021-10-17T10:31:08Z</time>
      </trkpt>
      <trkpt lat="43.67216" lon="3.8802">
        <ele>114.622002</ele>
        <time>2021-10-17T10:31:18Z</time>
      </trkpt>
      <trkpt lat="43.67153" lon="3.87938">
        <ele>110.372414</ele>
        <time>2021-10-17T10:31:28Z</time>
      </trkpt>
      <trkpt lat="43.6713" lon="3.87859">
        <ele>108.028465</ele>
        <time>2021-10-17T10:31:38Z</time>
      </trkpt>
      <trkpt lat="43.6712" lon="3.87789">
        <ele>108.116859</ele>
        <time>2021-10-17T10:31:48Z</time>
      </trkpt>
      <trkpt lat="43.67108" lon="3.87713">
        <ele>108.769966</ele>
        <time>2021-10-17T10:31:58Z</time>
      </trkpt>
      <trkpt lat="43.67097" lon="3.87635">
        <ele>109.873665</ele>
        <time>2021-10-17T10:32:08Z</time>
      </trkpt>
      <trkpt lat="43.67084" lon="3.87566">
        <ele>110.274658</ele>
        <time>2021-10-17T10:32:18Z</time>
      </trkpt>
      <trkpt lat="43.67083" lon="3.87499">
        <ele>111.421196</ele>
        <time>2021-10-17T10:32:28Z</time>
      </trkpt>
      <trkpt lat="43.67085" lon="3.87441">
        <ele>113.226929</ele>
        <time>2021-10-17T10:32:38Z</time>
      </trkpt>
      <trkpt lat="43.67086" lon="3.87388">
        <ele>114.670067</ele>
        <time>2021-10-17T10:32:48Z</time>
      </trkpt>
      <trkpt lat="43.67076" lon="3.8734">
        <ele>114.370178</ele>
        <time>2021-10-17T10:32:58Z</time>
      </trkpt>
      <trkpt lat="43.67084" lon="3.87297">
        <ele>113.067528</ele>
        <time>2021-10-17T10:33:08Z</time>
      </trkpt>
      <trkpt lat="43.67087" lon="3.87249">
        <ele>110.519463</ele>
        <time>2021-10-17T10:33:18Z</time>
      </trkpt>
      <trkpt lat="43.67066" lon="3.87205">
        <ele>109.671387</ele>
        <time>2021-10-17T10:33:28Z</time>
      </trkpt>
      <trkpt lat="43.67037" lon="3.8715">
        <ele>106.852287</ele>
        <time>2021-10-17T10:33:38Z</time>
      </trkpt>
      <trkpt lat="43.67012" lon="3.87129">
        <ele>103.459618</ele>
        <time>2021-10-17T10:33:48Z</time>
      </trkpt>
      <trkpt lat="43.66984" lon="3.8712">
        <ele>101.190979</ele>
        <time>2021-10-17T10:33:58Z</time>
      </trkpt>
      <trkpt lat="43.66954" lon="3.87118">
        <ele>99.449768</ele>
        <time>2021-10-17T10:34:08Z</time>
      </trkpt>
      <trkpt lat="43.66931" lon="3.87108">
        <ele>98.194305</ele>
        <time>2021-10-17T10:34:18Z</time>
      </trkpt>
      <trkpt lat="43.66904" lon="3.8709">
        <ele>96.256592</ele>
        <time>2021-10-17T10:34:28Z</time>
      </trkpt>
      <trkpt lat="43.66876" lon="3.87073">
        <ele>93.570068</ele>
        <time>2021-10-17T10:34:38Z</time>
      </trkpt>
      <trkpt lat="43.66843" lon="3.87053">
        <ele>91.419762</ele>
        <time>2021-10-17T10:34:48Z</time>
      </trkpt>
      <trkpt lat="43.66808" lon="3.87038">
        <ele>88.732506</ele>
        <time>2021-10-17T10:34:58Z</time>
      </trkpt>
      <trkpt lat="43.66784" lon="3.8702">
        <ele>85.886719</ele>
        <time>2021-10-17T10:35:08Z</time>
      </trkpt>
      <trkpt lat="43.66756" lon="3.87">
        <ele>82.104805</ele>
        <time>2021-10-17T10:35:18Z</time>
      </trkpt>
      <trkpt lat="43.66736" lon="3.86974">
        <ele>78.854576</ele>
        <time>2021-10-17T10:35:28Z</time>
      </trkpt>
      <trkpt lat="43.66716" lon="3.86966">
        <ele>76.938446</ele>
        <time>2021-10-17T10:35:58Z</time>
      </trkpt>
      <trkpt lat="43.66685" lon="3.86942">
        <ele>75.912071</ele>
        <time>2021-10-17T10:36:18Z</time>
      </trkpt>
      <trkpt lat="43.66653" lon="3.86923">
        <ele>74.473289</ele>
        <time>2021-10-17T10:36:28Z</time>
      </trkpt>
      <trkpt lat="43.66634" lon="3.86902">
        <ele>73.720695</ele>
        <time>2021-10-17T10:36:38Z</time>
      </trkpt>
      <trkpt lat="43.66613" lon="3.86935">
        <ele>76.678169</ele>
        <time>2021-10-17T10:36:48Z</time>
      </trkpt>
      <trkpt lat="43.66588" lon="3.86907">
        <ele>79.525429</ele>
        <time>2021-10-17T10:36:58Z</time>
      </trkpt>
      <trkpt lat="43.66572" lon="3.86864">
        <ele>77.485245</ele>
        <time>2021-10-17T10:37:08Z</time>
      </trkpt>
      <trkpt lat="43.66565" lon="3.86817">
        <ele>72.706345</ele>
        <time>2021-10-17T10:37:18Z</time>
      </trkpt>
      <trkpt lat="43.66544" lon="3.86762">
        <ele>68.056572</ele>
        <time>2021-10-17T10:37:28Z</time>
      </trkpt>
      <trkpt lat="43.66515" lon="3.86717">
        <ele>63.416256</ele>
        <time>2021-10-17T10:37:38Z</time>
      </trkpt>
      <trkpt lat="43.66482" lon="3.86724">
        <ele>62.115704</ele>
        <time>2021-10-17T10:37:48Z</time>
      </trkpt>
      <trkpt lat="43.66443" lon="3.86738">
        <ele>63.647079</ele>
        <time>2021-10-17T10:37:58Z</time>
      </trkpt>
      <trkpt lat="43.66413" lon="3.8676">
        <ele>65.015877</ele>
        <time>2021-10-17T10:38:08Z</time>
      </trkpt>
      <trkpt lat="43.66383" lon="3.86765">
        <ele>65.901497</ele>
        <time>2021-10-17T10:38:18Z</time>
      </trkpt>
      <trkpt lat="43.66348" lon="3.86747">
        <ele>65.091591</ele>
        <time>2021-10-17T10:38:28Z</time>
      </trkpt>
      <trkpt lat="43.66318" lon="3.86727">
        <ele>62.721844</ele>
        <time>2021-10-17T10:38:38Z</time>
      </trkpt>
      <trkpt lat="43.66283" lon="3.86724">
        <ele>60.971355</ele>
        <time>2021-10-17T10:38:48Z</time>
      </trkpt>
      <trkpt lat="43.66248" lon="3.86728">
        <ele>60.223309</ele>
        <time>2021-10-17T10:38:58Z</time>
      </trkpt>
      <trkpt lat="43.66209" lon="3.86743">
        <ele>59.657024</ele>
        <time>2021-10-17T10:39:08Z</time>
      </trkpt>
      <trkpt lat="43.66165" lon="3.86709">
        <ele>57.991154</ele>
        <time>2021-10-17T10:39:18Z</time>
      </trkpt>
      <trkpt lat="43.6611" lon="3.86733">
        <ele>55.670849</ele>
        <time>2021-10-17T10:39:28Z</time>
      </trkpt>
      <trkpt lat="43.66069" lon="3.86756">
        <ele>53.912441</ele>
        <time>2021-10-17T10:39:38Z</time>
      </trkpt>
      <trkpt lat="43.66047" lon="3.86813">
        <ele>53.474201</ele>
        <time>2021-10-17T10:39:48Z</time>
      </trkpt>
      <trkpt lat="43.66021" lon="3.86809">
        <ele>54.946793</ele>
        <time>2021-10-17T10:39:58Z</time>
      </trkpt>
      <trkpt lat="43.66" lon="3.8677">
        <ele>51.646793</ele>
        <time>2021-10-17T10:40:08Z</time>
      </trkpt>
      <trkpt lat="43.65971" lon="3.86781">
        <ele>49.830532</ele>
        <time>2021-10-17T10:40:28Z</time>
      </trkpt>
      <trkpt lat="43.65938" lon="3.86786">
        <ele>48.511963</ele>
        <time>2021-10-17T10:40:38Z</time>
      </trkpt>
      <trkpt lat="43.65961" lon="3.86786">
        <ele>48.016766</ele>
        <time>2021-10-17T10:41:58Z</time>
      </trkpt>
      <trkpt lat="43.65984" lon="3.86776">
        <ele>49.121735</ele>
        <time>2021-10-17T10:42:18Z</time>
      </trkpt>
      <trkpt lat="43.66002" lon="3.86769">
        <ele>49.928143</ele>
        <time>2021-10-17T10:42:28Z</time>
      </trkpt>
      <trkpt lat="43.66016" lon="3.86778">
        <ele>50.790638</ele>
        <time>2021-10-17T10:42:38Z</time>
      </trkpt>
      <trkpt lat="43.66018" lon="3.86801">
        <ele>51.987446</ele>
        <time>2021-10-17T10:42:48Z</time>
      </trkpt>
      <trkpt lat="43.66016" lon="3.86823">
        <ele>53.373859</ele>
        <time>2021-10-17T10:42:58Z</time>
      </trkpt>
      <trkpt lat="43.66013" lon="3.86845">
        <ele>54.640797</ele>
        <time>2021-10-17T10:43:08Z</time>
      </trkpt>
      <trkpt lat="43.65999" lon="3.86851">
        <ele>55.306427</ele>
        <time>2021-10-17T10:43:18Z</time>
      </trkpt>
      <trkpt lat="43.65987" lon="3.86858">
        <ele>54.911713</ele>
        <time>2021-10-17T10:43:28Z</time>
      </trkpt>
      <trkpt lat="43.6597" lon="3.86846">
        <ele>54.865948</ele>
        <time>2021-10-17T10:43:38Z</time>
      </trkpt>
      <trkpt lat="43.6596" lon="3.8681">
        <ele>52.073368</ele>
        <time>2021-10-17T10:43:48Z</time>
      </trkpt>
      <trkpt lat="43.65927" lon="3.86789">
        <ele>48.752117</ele>
        <time>2021-10-17T10:43:58Z</time>
      </trkpt>
      <trkpt lat="43.65917" lon="3.86784">
        <ele>46.479328</ele>
        <time>2021-10-17T10:44:08Z</time>
      </trkpt>
      <trkpt lat="43.65902" lon="3.8673">
        <ele>45.071453</ele>
        <time>2021-10-17T10:44:18Z</time>
      </trkpt>
      <trkpt lat="43.65868" lon="3.86698">
        <ele>43.637661</ele>
        <time>2021-10-17T10:44:28Z</time>
      </trkpt>
      <trkpt lat="43.65832" lon="3.86696">
        <ele>43.336224</ele>
        <time>2021-10-17T10:44:38Z</time>
      </trkpt>
      <trkpt lat="43.65788" lon="3.86697">
        <ele>42.812153</ele>
        <time>2021-10-17T10:44:48Z</time>
      </trkpt>
      <trkpt lat="43.6574" lon="3.86698">
        <ele>42.807072</ele>
        <time>2021-10-17T10:44:58Z</time>
      </trkpt>
      <trkpt lat="43.65701" lon="3.86691">
        <ele>43.885021</ele>
        <time>2021-10-17T10:45:08Z</time>
      </trkpt>
      <trkpt lat="43.65675" lon="3.86683">
        <ele>44.687759</ele>
        <time>2021-10-17T10:45:18Z</time>
      </trkpt>
      <trkpt lat="43.65652" lon="3.86693">
        <ele>44.670013</ele>
        <time>2021-10-17T10:45:28Z</time>
      </trkpt>
      <trkpt lat="43.6563" lon="3.8671">
        <ele>43.971069</ele>
        <time>2021-10-17T10:45:38Z</time>
      </trkpt>
      <trkpt lat="43.65602" lon="3.86739">
        <ele>43.180614</ele>
        <time>2021-10-17T10:45:48Z</time>
      </trkpt>
      <trkpt lat="43.65583" lon="3.86771">
        <ele>42.45882</ele>
        <time>2021-10-17T10:45:58Z</time>
      </trkpt>
      <trkpt lat="43.6555" lon="3.86784">
        <ele>42.075115</ele>
        <time>2021-10-17T10:46:08Z</time>
      </trkpt>
      <trkpt lat="43.65513" lon="3.86785">
        <ele>42.39333</ele>
        <time>2021-10-17T10:46:18Z</time>
      </trkpt>
      <trkpt lat="43.65488" lon="3.86803">
        <ele>42.608582</ele>
        <time>2021-10-17T10:46:28Z</time>
      </trkpt>
      <trkpt lat="43.65463" lon="3.86772">
        <ele>43.078938</ele>
        <time>2021-10-17T10:46:38Z</time>
      </trkpt>
      <trkpt lat="43.65424" lon="3.8675">
        <ele>43.560871</ele>
        <time>2021-10-17T10:46:48Z</time>
      </trkpt>
      <trkpt lat="43.65385" lon="3.86736">
        <ele>43.998211</ele>
        <time>2021-10-17T10:46:58Z</time>
      </trkpt>
      <trkpt lat="43.65356" lon="3.86755">
        <ele>44</ele>
        <time>2021-10-17T10:47:08Z</time>
      </trkpt>
      <trkpt lat="43.6533" lon="3.86776">
        <ele>44.087646</ele>
        <time>2021-10-17T10:47:18Z</time>
      </trkpt>
      <trkpt lat="43.653" lon="3.86809">
        <ele>44.404377</ele>
        <time>2021-10-17T10:47:28Z</time>
      </trkpt>
      <trkpt lat="43.65285" lon="3.86867">
        <ele>44.821941</ele>
        <time>2021-10-17T10:47:38Z</time>
      </trkpt>
      <trkpt lat="43.65281" lon="3.86921">
        <ele>44.972736</ele>
        <time>2021-10-17T10:47:48Z</time>
      </trkpt>
      <trkpt lat="43.65268" lon="3.8697">
        <ele>45.032959</ele>
        <time>2021-10-17T10:47:58Z</time>
      </trkpt>
      <trkpt lat="43.65242" lon="3.87012">
        <ele>45.011185</ele>
        <time>2021-10-17T10:48:08Z</time>
      </trkpt>
      <trkpt lat="43.65208" lon="3.87046">
        <ele>44.896881</ele>
        <time>2021-10-17T10:48:18Z</time>
      </trkpt>
      <trkpt lat="43.65175" lon="3.8708">
        <ele>45.242481</ele>
        <time>2021-10-17T10:48:28Z</time>
      </trkpt>
      <trkpt lat="43.65169" lon="3.8714">
        <ele>46.011616</ele>
        <time>2021-10-17T10:48:38Z</time>
      </trkpt>
      <trkpt lat="43.65176" lon="3.87197">
        <ele>46.235516</ele>
        <time>2021-10-17T10:48:48Z</time>
      </trkpt>
      <trkpt lat="43.65205" lon="3.87242">
        <ele>45.903965</ele>
        <time>2021-10-17T10:48:58Z</time>
      </trkpt>
      <trkpt lat="43.65235" lon="3.87248">
        <ele>45.444202</ele>
        <time>2021-10-17T10:49:08Z</time>
      </trkpt>
      <trkpt lat="43.65239" lon="3.87215">
        <ele>44.444977</ele>
        <time>2021-10-17T10:49:18Z</time>
      </trkpt>
      <trkpt lat="43.65218" lon="3.87185">
        <ele>44.493999</ele>
        <time>2021-10-17T10:49:28Z</time>
      </trkpt>
      <trkpt lat="43.65201" lon="3.87151">
        <ele>45.002766</ele>
        <time>2021-10-17T10:49:38Z</time>
      </trkpt>
      <trkpt lat="43.65199" lon="3.8712">
        <ele>45.257343</ele>
        <time>2021-10-17T10:49:48Z</time>
      </trkpt>
      <trkpt lat="43.65177" lon="3.87073">
        <ele>45.470181</ele>
        <time>2021-10-17T10:49:58Z</time>
      </trkpt>
      <trkpt lat="43.65157" lon="3.87023">
        <ele>45.631626</ele>
        <time>2021-10-17T10:50:08Z</time>
      </trkpt>
      <trkpt lat="43.6514" lon="3.86978">
        <ele>45.905682</ele>
        <time>2021-10-17T10:50:18Z</time>
      </trkpt>
      <trkpt lat="43.65123" lon="3.8693">
        <ele>46.527637</ele>
        <time>2021-10-17T10:50:28Z</time>
      </trkpt>
      <trkpt lat="43.65112" lon="3.86884">
        <ele>47</ele>
        <time>2021-10-17T10:50:38Z</time>
      </trkpt>
      <trkpt lat="43.65097" lon="3.86827">
        <ele>47.01688</ele>
        <time>2021-10-17T10:50:48Z</time>
      </trkpt>
      <trkpt lat="43.65088" lon="3.8677">
        <ele>47.194214</ele>
        <time>2021-10-17T10:50:58Z</time>
      </trkpt>
      <trkpt lat="43.65081" lon="3.86709">
        <ele>47.164307</ele>
        <time>2021-10-17T10:51:08Z</time>
      </trkpt>
      <trkpt lat="43.65061" lon="3.86663">
        <ele>51.871567</ele>
        <time>2021-10-17T10:51:18Z</time>
      </trkpt>
      <trkpt lat="43.6502" lon="3.86677">
        <ele>54.052608</ele>
        <time>2021-10-17T10:51:28Z</time>
      </trkpt>
      <trkpt lat="43.64983" lon="3.86711">
        <ele>51.346043</ele>
        <time>2021-10-17T10:51:38Z</time>
      </trkpt>
      <trkpt lat="43.64947" lon="3.86754">
        <ele>48.274448</ele>
        <time>2021-10-17T10:51:48Z</time>
      </trkpt>
      <trkpt lat="43.64918" lon="3.86791">
        <ele>49.161633</ele>
        <time>2021-10-17T10:51:58Z</time>
      </trkpt>
      <trkpt lat="43.64884" lon="3.86831">
        <ele>50.176746</ele>
        <time>2021-10-17T10:52:08Z</time>
      </trkpt>
      <trkpt lat="43.6485" lon="3.86858">
        <ele>50.235699</ele>
        <time>2021-10-17T10:52:18Z</time>
      </trkpt>
      <trkpt lat="43.64816" lon="3.86863">
        <ele>50.277847</ele>
        <time>2021-10-17T10:52:28Z</time>
      </trkpt>
      <trkpt lat="43.64776" lon="3.86861">
        <ele>50.673306</ele>
        <time>2021-10-17T10:52:38Z</time>
      </trkpt>
      <trkpt lat="43.6474" lon="3.8686">
        <ele>51.309536</ele>
        <time>2021-10-17T10:52:48Z</time>
      </trkpt>
      <trkpt lat="43.64708" lon="3.86859">
        <ele>51.526981</ele>
        <time>2021-10-17T10:52:58Z</time>
      </trkpt>
      <trkpt lat="43.64671" lon="3.86859">
        <ele>49.180271</ele>
        <time>2021-10-17T10:53:18Z</time>
      </trkpt>
      <trkpt lat="43.64631" lon="3.86859">
        <ele>47.714413</ele>
        <time>2021-10-17T10:53:38Z</time>
      </trkpt>
      <trkpt lat="43.6459" lon="3.86856">
        <ele>47.252956</ele>
        <time>2021-10-17T10:53:48Z</time>
      </trkpt>
      <trkpt lat="43.6455" lon="3.86856">
        <ele>49.770996</ele>
        <time>2021-10-17T10:53:58Z</time>
      </trkpt>
      <trkpt lat="43.64515" lon="3.86873">
        <ele>55.83604</ele>
        <time>2021-10-17T10:54:08Z</time>
      </trkpt>
      <trkpt lat="43.64493" lon="3.86892">
        <ele>60.145187</ele>
        <time>2021-10-17T10:54:18Z</time>
      </trkpt>
      <trkpt lat="43.64469" lon="3.86899">
        <ele>65.009712</ele>
        <time>2021-10-17T10:54:28Z</time>
      </trkpt>
      <trkpt lat="43.64455" lon="3.86872">
        <ele>68.415642</ele>
        <time>2021-10-17T10:54:38Z</time>
      </trkpt>
      <trkpt lat="43.64446" lon="3.8684">
        <ele>71.193909</ele>
        <time>2021-10-17T10:54:48Z</time>
      </trkpt>
      <trkpt lat="43.64437" lon="3.86833">
        <ele>72.904015</ele>
        <time>2021-10-17T10:54:58Z</time>
      </trkpt>
      <trkpt lat="43.6443" lon="3.86823">
        <ele>74.531036</ele>
        <time>2021-10-17T10:55:08Z</time>
      </trkpt>
      <trkpt lat="43.64425" lon="3.86817">
        <ele>75.618904</ele>
        <time>2021-10-17T10:55:18Z</time>
      </trkpt>
      <trkpt lat="43.64412" lon="3.86844">
        <ele>77.614532</ele>
        <time>2021-10-17T10:55:38Z</time>
      </trkpt>
      <trkpt lat="43.64408" lon="3.86873">
        <ele>78.682922</ele>
        <time>2021-10-17T10:55:58Z</time>
      </trkpt>
      <trkpt lat="43.64406" lon="3.86896">
        <ele>79.076088</ele>
        <time>2021-10-17T10:56:08Z</time>
      </trkpt>
      <trkpt lat="43.64404" lon="3.8692">
        <ele>79.495033</ele>
        <time>2021-10-17T10:56:18Z</time>
      </trkpt>
      <trkpt lat="43.64396" lon="3.86947">
        <ele>80.465714</ele>
        <time>2021-10-17T10:56:28Z</time>
      </trkpt>
      <trkpt lat="43.64383" lon="3.86976">
        <ele>82.231094</ele>
        <time>2021-10-17T10:56:38Z</time>
      </trkpt>
      <trkpt lat="43.64365" lon="3.8699">
        <ele>84.01915</ele>
        <time>2021-10-17T10:56:48Z</time>
      </trkpt>
      <trkpt lat="43.64354" lon="3.86999">
        <ele>85.827553</ele>
        <time>2021-10-17T10:56:58Z</time>
      </trkpt>
      <trkpt lat="43.64344" lon="3.87012">
        <ele>86.466034</ele>
        <time>2021-10-17T10:57:08Z</time>
      </trkpt>
      <trkpt lat="43.64332" lon="3.87014">
        <ele>87.43235</ele>
        <time>2021-10-17T10:57:18Z</time>
      </trkpt>
      <trkpt lat="43.64323" lon="3.87006">
        <ele>89.371483</ele>
        <time>2021-10-17T10:57:28Z</time>
      </trkpt>
      <trkpt lat="43.6431" lon="3.86999">
        <ele>90.958473</ele>
        <time>2021-10-17T10:57:38Z</time>
      </trkpt>
      <trkpt lat="43.64298" lon="3.86994">
        <ele>92.015388</ele>
        <time>2021-10-17T10:57:48Z</time>
      </trkpt>
      <trkpt lat="43.64288" lon="3.86989">
        <ele>92.394066</ele>
        <time>2021-10-17T10:57:58Z</time>
      </trkpt>
      <trkpt lat="43.64274" lon="3.86983">
        <ele>92.701111</ele>
        <time>2021-10-17T10:58:08Z</time>
      </trkpt>
      <trkpt lat="43.64264" lon="3.86982">
        <ele>92.922646</ele>
        <time>2021-10-17T10:58:18Z</time>
      </trkpt>
      <trkpt lat="43.64253" lon="3.86985">
        <ele>93.044586</ele>
        <time>2021-10-17T10:58:28Z</time>
      </trkpt>
      <trkpt lat="43.64239" lon="3.86992">
        <ele>92.890907</ele>
        <time>2021-10-17T10:58:38Z</time>
      </trkpt>
      <trkpt lat="43.64228" lon="3.86994">
        <ele>92.272224</ele>
        <time>2021-10-17T10:58:48Z</time>
      </trkpt>
      <trkpt lat="43.64214" lon="3.86991">
        <ele>91.721458</ele>
        <time>2021-10-17T10:58:58Z</time>
      </trkpt>
      <trkpt lat="43.64201" lon="3.86982">
        <ele>91.221504</ele>
        <time>2021-10-17T10:59:08Z</time>
      </trkpt>
      <trkpt lat="43.64181" lon="3.86973">
        <ele>90.484383</ele>
        <time>2021-10-17T10:59:18Z</time>
      </trkpt>
      <trkpt lat="43.6416" lon="3.8696">
        <ele>89.729553</ele>
        <time>2021-10-17T10:59:28Z</time>
      </trkpt>
      <trkpt lat="43.64148" lon="3.86984">
        <ele>88.969612</ele>
        <time>2021-10-17T10:59:48Z</time>
      </trkpt>
      <trkpt lat="43.64136" lon="3.87007">
        <ele>88.830238</ele>
        <time>2021-10-17T11:00:08Z</time>
      </trkpt>
      <trkpt lat="43.64127" lon="3.87037">
        <ele>88.43116</ele>
        <time>2021-10-17T11:00:18Z</time>
      </trkpt>
      <trkpt lat="43.64114" lon="3.87075">
        <ele>88.15271</ele>
        <time>2021-10-17T11:00:28Z</time>
      </trkpt>
      <trkpt lat="43.64082" lon="3.87141">
        <ele>86.93811</ele>
        <time>2021-10-17T11:00:38Z</time>
      </trkpt>
      <trkpt lat="43.64058" lon="3.872">
        <ele>85.70752</ele>
        <time>2021-10-17T11:00:48Z</time>
      </trkpt>
      <trkpt lat="43.64034" lon="3.87249">
        <ele>85.088219</ele>
        <time>2021-10-17T11:00:58Z</time>
      </trkpt>
      <trkpt lat="43.6401" lon="3.87284">
        <ele>83.831459</ele>
        <time>2021-10-17T11:01:08Z</time>
      </trkpt>
      <trkpt lat="43.63981" lon="3.87299">
        <ele>82.35923</ele>
        <time>2021-10-17T11:01:18Z</time>
      </trkpt>
      <trkpt lat="43.63938" lon="3.87304">
        <ele>79.849625</ele>
        <time>2021-10-17T11:01:28Z</time>
      </trkpt>
      <trkpt lat="43.63905" lon="3.8729">
        <ele>76.487961</ele>
        <time>2021-10-17T11:01:38Z</time>
      </trkpt>
      <trkpt lat="43.63887" lon="3.87234">
        <ele>74.809242</ele>
        <time>2021-10-17T11:01:48Z</time>
      </trkpt>
      <trkpt lat="43.63866" lon="3.87153">
        <ele>73.659584</ele>
        <time>2021-10-17T11:01:58Z</time>
      </trkpt>
      <trkpt lat="43.6384" lon="3.87065">
        <ele>71.469154</ele>
        <time>2021-10-17T11:02:08Z</time>
      </trkpt>
      <trkpt lat="43.63814" lon="3.86977">
        <ele>69.336037</ele>
        <time>2021-10-17T11:02:18Z</time>
      </trkpt>
      <trkpt lat="43.63783" lon="3.86931">
        <ele>66.982101</ele>
        <time>2021-10-17T11:02:28Z</time>
      </trkpt>
      <trkpt lat="43.6373" lon="3.869">
        <ele>65.879089</ele>
        <time>2021-10-17T11:02:38Z</time>
      </trkpt>
      <trkpt lat="43.63685" lon="3.86883">
        <ele>65.92247</ele>
        <time>2021-10-17T11:02:48Z</time>
      </trkpt>
      <trkpt lat="43.63646" lon="3.8687">
        <ele>66.219612</ele>
        <time>2021-10-17T11:02:58Z</time>
      </trkpt>
      <trkpt lat="43.63602" lon="3.86853">
        <ele>66.194298</ele>
        <time>2021-10-17T11:03:08Z</time>
      </trkpt>
      <trkpt lat="43.63575" lon="3.8681">
        <ele>65.456245</ele>
        <time>2021-10-17T11:03:18Z</time>
      </trkpt>
      <trkpt lat="43.63547" lon="3.86817">
        <ele>64.626488</ele>
        <time>2021-10-17T11:03:28Z</time>
      </trkpt>
      <trkpt lat="43.63509" lon="3.86817">
        <ele>64.65509</ele>
        <time>2021-10-17T11:03:38Z</time>
      </trkpt>
      <trkpt lat="43.63472" lon="3.86807">
        <ele>64.313339</ele>
        <time>2021-10-17T11:03:48Z</time>
      </trkpt>
      <trkpt lat="43.63432" lon="3.86804">
        <ele>63.723957</ele>
        <time>2021-10-17T11:03:58Z</time>
      </trkpt>
      <trkpt lat="43.63387" lon="3.86796">
        <ele>63.037701</ele>
        <time>2021-10-17T11:04:08Z</time>
      </trkpt>
      <trkpt lat="43.63343" lon="3.86788">
        <ele>62.219177</ele>
        <time>2021-10-17T11:04:18Z</time>
      </trkpt>
      <trkpt lat="43.63296" lon="3.86792">
        <ele>60.964527</ele>
        <time>2021-10-17T11:04:28Z</time>
      </trkpt>
      <trkpt lat="43.63241" lon="3.86809">
        <ele>59.354248</ele>
        <time>2021-10-17T11:04:38Z</time>
      </trkpt>
      <trkpt lat="43.63195" lon="3.86841">
        <ele>57.509113</ele>
        <time>2021-10-17T11:04:48Z</time>
      </trkpt>
      <trkpt lat="43.63146" lon="3.86876">
        <ele>56.30827</ele>
        <time>2021-10-17T11:04:58Z</time>
      </trkpt>
      <trkpt lat="43.631" lon="3.86909">
        <ele>55.095783</ele>
        <time>2021-10-17T11:05:08Z</time>
      </trkpt>
      <trkpt lat="43.63057" lon="3.8694">
        <ele>54.015217</ele>
        <time>2021-10-17T11:05:18Z</time>
      </trkpt>
      <trkpt lat="43.6302" lon="3.86986">
        <ele>53.366047</ele>
        <time>2021-10-17T11:05:28Z</time>
      </trkpt>
      <trkpt lat="43.62989" lon="3.87014">
        <ele>52.918182</ele>
        <time>2021-10-17T11:05:38Z</time>
      </trkpt>
      <trkpt lat="43.6296" lon="3.87035">
        <ele>52.766148</ele>
        <time>2021-10-17T11:05:48Z</time>
      </trkpt>
      <trkpt lat="43.62954" lon="3.87032">
        <ele>52.688427</ele>
        <time>2021-10-17T11:05:58Z</time>
      </trkpt>
      <trkpt lat="43.62938" lon="3.87006">
        <ele>52.411236</ele>
        <time>2021-10-17T11:06:08Z</time>
      </trkpt>
      <trkpt lat="43.62927" lon="3.86982">
        <ele>52</ele>
        <time>2021-10-17T11:07:18Z</time>
      </trkpt>
      <trkpt lat="43.62902" lon="3.86951">
        <ele>52</ele>
        <time>2021-10-17T11:07:38Z</time>
      </trkpt>
      <trkpt lat="43.62882" lon="3.86911">
        <ele>52</ele>
        <time>2021-10-17T11:07:48Z</time>
      </trkpt>
      <trkpt lat="43.62854" lon="3.86869">
        <ele>51.942463</ele>
        <time>2021-10-17T11:07:58Z</time>
      </trkpt>
      <trkpt lat="43.62827" lon="3.86834">
        <ele>51.445923</ele>
        <time>2021-10-17T11:08:08Z</time>
      </trkpt>
      <trkpt lat="43.62798" lon="3.86797">
        <ele>50.55835</ele>
        <time>2021-10-17T11:08:18Z</time>
      </trkpt>
      <trkpt lat="43.62764" lon="3.86752">
        <ele>49.286179</ele>
        <time>2021-10-17T11:08:28Z</time>
      </trkpt>
      <trkpt lat="43.6273" lon="3.86704">
        <ele>47.623535</ele>
        <time>2021-10-17T11:08:38Z</time>
      </trkpt>
      <trkpt lat="43.62698" lon="3.8666">
        <ele>47.344906</ele>
        <time>2021-10-17T11:08:48Z</time>
      </trkpt>
      <trkpt lat="43.62668" lon="3.86631">
        <ele>47.994751</ele>
        <time>2021-10-17T11:08:58Z</time>
      </trkpt>
      <trkpt lat="43.62644" lon="3.8661">
        <ele>47.737873</ele>
        <time>2021-10-17T11:09:08Z</time>
      </trkpt>
      <trkpt lat="43.62618" lon="3.86557">
        <ele>47.455891</ele>
        <time>2021-10-17T11:09:18Z</time>
      </trkpt>
      <trkpt lat="43.62588" lon="3.86502">
        <ele>47.051922</ele>
        <time>2021-10-17T11:09:28Z</time>
      </trkpt>
      <trkpt lat="43.62556" lon="3.86451">
        <ele>46.173664</ele>
        <time>2021-10-17T11:09:38Z</time>
      </trkpt>
      <trkpt lat="43.62518" lon="3.86397">
        <ele>45.18462</ele>
        <time>2021-10-17T11:09:48Z</time>
      </trkpt>
      <trkpt lat="43.62478" lon="3.86337">
        <ele>44.987701</ele>
        <time>2021-10-17T11:09:58Z</time>
      </trkpt>
      <trkpt lat="43.62437" lon="3.86275">
        <ele>44.908039</ele>
        <time>2021-10-17T11:10:08Z</time>
      </trkpt>
      <trkpt lat="43.624" lon="3.86216">
        <ele>44.922955</ele>
        <time>2021-10-17T11:10:18Z</time>
      </trkpt>
      <trkpt lat="43.62363" lon="3.86167">
        <ele>44.838867</ele>
        <time>2021-10-17T11:10:28Z</time>
      </trkpt>
      <trkpt lat="43.62325" lon="3.86113">
        <ele>44.186245</ele>
        <time>2021-10-17T11:10:38Z</time>
      </trkpt>
      <trkpt lat="43.6229" lon="3.86056">
        <ele>43.537434</ele>
        <time>2021-10-17T11:10:48Z</time>
      </trkpt>
      <trkpt lat="43.62253" lon="3.86002">
        <ele>42.201092</ele>
        <time>2021-10-17T11:10:58Z</time>
      </trkpt>
      <trkpt lat="43.62214" lon="3.85948">
        <ele>40.862385</ele>
        <time>2021-10-17T11:11:08Z</time>
      </trkpt>
      <trkpt lat="43.62172" lon="3.85895">
        <ele>40.054874</ele>
        <time>2021-10-17T11:11:18Z</time>
      </trkpt>
      <trkpt lat="43.62127" lon="3.85841">
        <ele>39.864651</ele>
        <time>2021-10-17T11:11:28Z</time>
      </trkpt>
      <trkpt lat="43.62086" lon="3.8579">
        <ele>40.781353</ele>
        <time>2021-10-17T11:11:38Z</time>
      </trkpt>
      <trkpt lat="43.62067" lon="3.8572">
        <ele>43.053329</ele>
        <time>2021-10-17T11:11:48Z</time>
      </trkpt>
      <trkpt lat="43.62053" lon="3.8565">
        <ele>45.95578</ele>
        <time>2021-10-17T11:11:58Z</time>
      </trkpt>
      <trkpt lat="43.6204" lon="3.8558">
        <ele>49.634506</ele>
        <time>2021-10-17T11:12:08Z</time>
      </trkpt>
      <trkpt lat="43.62027" lon="3.85512">
        <ele>51.489246</ele>
        <time>2021-10-17T11:12:18Z</time>
      </trkpt>
      <trkpt lat="43.62021" lon="3.85446">
        <ele>52.212173</ele>
        <time>2021-10-17T11:12:28Z</time>
      </trkpt>
      <trkpt lat="43.62017" lon="3.8538">
        <ele>52.446117</ele>
        <time>2021-10-17T11:12:38Z</time>
      </trkpt>
      <trkpt lat="43.62015" lon="3.85319">
        <ele>52.220184</ele>
        <time>2021-10-17T11:12:48Z</time>
      </trkpt>
      <trkpt lat="43.62013" lon="3.85263">
        <ele>52.822021</ele>
        <time>2021-10-17T11:12:58Z</time>
      </trkpt>
      <trkpt lat="43.62012" lon="3.85213">
        <ele>53.927631</ele>
        <time>2021-10-17T11:13:08Z</time>
      </trkpt>
      <trkpt lat="43.62011" lon="3.85164">
        <ele>54.783039</ele>
        <time>2021-10-17T11:13:18Z</time>
      </trkpt>
      <trkpt lat="43.62011" lon="3.85119">
        <ele>55.549072</ele>
        <time>2021-10-17T11:13:28Z</time>
      </trkpt>
      <trkpt lat="43.62008" lon="3.85073">
        <ele>56.209309</ele>
        <time>2021-10-17T11:13:38Z</time>
      </trkpt>
      <trkpt lat="43.62019" lon="3.85037">
        <ele>56.911884</ele>
        <time>2021-10-17T11:13:48Z</time>
      </trkpt>
      <trkpt lat="43.62044" lon="3.84987">
        <ele>57.433258</ele>
        <time>2021-10-17T11:15:28Z</time>
      </trkpt>
      <trkpt lat="43.62072" lon="3.84938">
        <ele>57.43713</ele>
        <time>2021-10-17T11:15:48Z</time>
      </trkpt>
      <trkpt lat="43.62107" lon="3.84878">
        <ele>57.005695</ele>
        <time>2021-10-17T11:15:58Z</time>
      </trkpt>
      <trkpt lat="43.62142" lon="3.84816">
        <ele>56.376007</ele>
        <time>2021-10-17T11:16:08Z</time>
      </trkpt>
      <trkpt lat="43.62171" lon="3.84757">
        <ele>56.984051</ele>
        <time>2021-10-17T11:16:18Z</time>
      </trkpt>
      <trkpt lat="43.62186" lon="3.84695">
        <ele>57.054813</ele>
        <time>2021-10-17T11:16:28Z</time>
      </trkpt>
      <trkpt lat="43.62201" lon="3.84646">
        <ele>57.855076</ele>
        <time>2021-10-17T11:16:38Z</time>
      </trkpt>
      <trkpt lat="43.62219" lon="3.84598">
        <ele>58.265949</ele>
        <time>2021-10-17T11:16:48Z</time>
      </trkpt>
      <trkpt lat="43.62242" lon="3.84554">
        <ele>58.588596</ele>
        <time>2021-10-17T11:16:58Z</time>
      </trkpt>
      <trkpt lat="43.62269" lon="3.84511">
        <ele>58.981537</ele>
        <time>2021-10-17T11:17:08Z</time>
      </trkpt>
      <trkpt lat="43.62296" lon="3.84466">
        <ele>59.330566</ele>
        <time>2021-10-17T11:17:18Z</time>
      </trkpt>
      <trkpt lat="43.6232" lon="3.8442">
        <ele>59.765995</ele>
        <time>2021-10-17T11:17:28Z</time>
      </trkpt>
      <trkpt lat="43.62346" lon="3.84382">
        <ele>60.658154</ele>
        <time>2021-10-17T11:17:38Z</time>
      </trkpt>
      <trkpt lat="43.6236" lon="3.84345">
        <ele>61.218643</ele>
        <time>2021-10-17T11:17:48Z</time>
      </trkpt>
      <trkpt lat="43.62373" lon="3.84312">
        <ele>61.821682</ele>
        <time>2021-10-17T11:17:58Z</time>
      </trkpt>
      <trkpt lat="43.62395" lon="3.84285">
        <ele>62.84676</ele>
        <time>2021-10-17T11:18:08Z</time>
      </trkpt>
      <trkpt lat="43.62419" lon="3.84266">
        <ele>63.508865</ele>
        <time>2021-10-17T11:18:18Z</time>
      </trkpt>
      <trkpt lat="43.62446" lon="3.84249">
        <ele>63.79007</ele>
        <time>2021-10-17T11:18:28Z</time>
      </trkpt>
      <trkpt lat="43.62468" lon="3.84212">
        <ele>64.424904</ele>
        <time>2021-10-17T11:18:38Z</time>
      </trkpt>
      <trkpt lat="43.62486" lon="3.84166">
        <ele>66.390083</ele>
        <time>2021-10-17T11:18:48Z</time>
      </trkpt>
      <trkpt lat="43.62505" lon="3.84121">
        <ele>68.791481</ele>
        <time>2021-10-17T11:18:58Z</time>
      </trkpt>
      <trkpt lat="43.62529" lon="3.84079">
        <ele>72.005959</ele>
        <time>2021-10-17T11:19:08Z</time>
      </trkpt>
      <trkpt lat="43.62554" lon="3.84037">
        <ele>75.173317</ele>
        <time>2021-10-17T11:19:18Z</time>
      </trkpt>
      <trkpt lat="43.62577" lon="3.83994">
        <ele>75.578728</ele>
        <time>2021-10-17T11:19:28Z</time>
      </trkpt>
      <trkpt lat="43.62582" lon="3.83943">
        <ele>75.880379</ele>
        <time>2021-10-17T11:19:38Z</time>
      </trkpt>
      <trkpt lat="43.62582" lon="3.83895">
        <ele>76.131042</ele>
        <time>2021-10-17T11:19:48Z</time>
      </trkpt>
      <trkpt lat="43.62592" lon="3.83845">
        <ele>76.28199</ele>
        <time>2021-10-17T11:19:58Z</time>
      </trkpt>
      <trkpt lat="43.62589" lon="3.83801">
        <ele>75.353157</ele>
        <time>2021-10-17T11:20:08Z</time>
      </trkpt>
      <trkpt lat="43.62561" lon="3.83775">
        <ele>76.190155</ele>
        <time>2021-10-17T11:20:18Z</time>
      </trkpt>
      <trkpt lat="43.62529" lon="3.83753">
        <ele>77.413857</ele>
        <time>2021-10-17T11:20:28Z</time>
      </trkpt>
      <trkpt lat="43.62497" lon="3.83729">
        <ele>78.34359</ele>
        <time>2021-10-17T11:20:38Z</time>
      </trkpt>
      <trkpt lat="43.62479" lon="3.83688">
        <ele>78.954704</ele>
        <time>2021-10-17T11:20:48Z</time>
      </trkpt>
      <trkpt lat="43.6245" lon="3.83679">
        <ele>79.683441</ele>
        <time>2021-10-17T11:20:58Z</time>
      </trkpt>
      <trkpt lat="43.62441" lon="3.83644">
        <ele>80.223999</ele>
        <time>2021-10-17T11:21:08Z</time>
      </trkpt>
      <trkpt lat="43.6247" lon="3.8362">
        <ele>79.537834</ele>
        <time>2021-10-17T11:21:18Z</time>
      </trkpt>
      <trkpt lat="43.62463" lon="3.83574">
        <ele>78.548813</ele>
        <time>2021-10-17T11:21:28Z</time>
      </trkpt>
      <trkpt lat="43.62447" lon="3.83522">
        <ele>77.953972</ele>
        <time>2021-10-17T11:21:38Z</time>
      </trkpt>
      <trkpt lat="43.62428" lon="3.83484">
        <ele>76.947578</ele>
        <time>2021-10-17T11:21:48Z</time>
      </trkpt>
      <trkpt lat="43.62397" lon="3.8345">
        <ele>75.573242</ele>
        <time>2021-10-17T11:21:58Z</time>
      </trkpt>
      <trkpt lat="43.62357" lon="3.83437">
        <ele>74.870644</ele>
        <time>2021-10-17T11:22:08Z</time>
      </trkpt>
      <trkpt lat="43.62317" lon="3.83451">
        <ele>75.553215</ele>
        <time>2021-10-17T11:22:18Z</time>
      </trkpt>
      <trkpt lat="43.62289" lon="3.83493">
        <ele>77.813072</ele>
        <time>2021-10-17T11:22:28Z</time>
      </trkpt>
      <trkpt lat="43.62262" lon="3.83524">
        <ele>80.05127</ele>
        <time>2021-10-17T11:22:38Z</time>
      </trkpt>
      <trkpt lat="43.62218" lon="3.83497">
        <ele>81.200073</ele>
        <time>2021-10-17T11:22:48Z</time>
      </trkpt>
      <trkpt lat="43.62183" lon="3.83455">
        <ele>81.424934</ele>
        <time>2021-10-17T11:22:58Z</time>
      </trkpt>
      <trkpt lat="43.62145" lon="3.8343">
        <ele>81.83773</ele>
        <time>2021-10-17T11:23:08Z</time>
      </trkpt>
      <trkpt lat="43.62108" lon="3.8339">
        <ele>82.9711</ele>
        <time>2021-10-17T11:23:18Z</time>
      </trkpt>
      <trkpt lat="43.62072" lon="3.83348">
        <ele>83.403603</ele>
        <time>2021-10-17T11:23:28Z</time>
      </trkpt>
      <trkpt lat="43.62039" lon="3.83308">
        <ele>83.379463</ele>
        <time>2021-10-17T11:23:38Z</time>
      </trkpt>
      <trkpt lat="43.62008" lon="3.83269">
        <ele>83.125023</ele>
        <time>2021-10-17T11:23:48Z</time>
      </trkpt>
      <trkpt lat="43.61974" lon="3.83258">
        <ele>82.29232</ele>
        <time>2021-10-17T11:23:58Z</time>
      </trkpt>
      <trkpt lat="43.61933" lon="3.83251">
        <ele>81.163246</ele>
        <time>2021-10-17T11:24:08Z</time>
      </trkpt>
      <trkpt lat="43.61889" lon="3.83228">
        <ele>79.939941</ele>
        <time>2021-10-17T11:24:18Z</time>
      </trkpt>
      <trkpt lat="43.61842" lon="3.83199">
        <ele>78.642006</ele>
        <time>2021-10-17T11:24:28Z</time>
      </trkpt>
      <trkpt lat="43.61799" lon="3.83171">
        <ele>77.005608</ele>
        <time>2021-10-17T11:24:38Z</time>
      </trkpt>
      <trkpt lat="43.61755" lon="3.83141">
        <ele>76.03373</ele>
        <time>2021-10-17T11:24:48Z</time>
      </trkpt>
      <trkpt lat="43.61715" lon="3.83108">
        <ele>75.29847</ele>
        <time>2021-10-17T11:24:58Z</time>
      </trkpt>
      <trkpt lat="43.61673" lon="3.83069">
        <ele>74.813232</ele>
        <time>2021-10-17T11:25:08Z</time>
      </trkpt>
      <trkpt lat="43.61625" lon="3.83032">
        <ele>74.159187</ele>
        <time>2021-10-17T11:25:18Z</time>
      </trkpt>
      <trkpt lat="43.61578" lon="3.82997">
        <ele>73.06826</ele>
        <time>2021-10-17T11:25:28Z</time>
      </trkpt>
      <trkpt lat="43.61531" lon="3.8296">
        <ele>71.108482</ele>
        <time>2021-10-17T11:25:38Z</time>
      </trkpt>
      <trkpt lat="43.61492" lon="3.82921">
        <ele>69.270103</ele>
        <time>2021-10-17T11:25:48Z</time>
      </trkpt>
      <trkpt lat="43.61467" lon="3.8289">
        <ele>67.682457</ele>
        <time>2021-10-17T11:25:58Z</time>
      </trkpt>
      <trkpt lat="43.61432" lon="3.82882">
        <ele>66.734535</ele>
        <time>2021-10-17T11:26:08Z</time>
      </trkpt>
      <trkpt lat="43.61395" lon="3.82891">
        <ele>65.539825</ele>
        <time>2021-10-17T11:26:18Z</time>
      </trkpt>
      <trkpt lat="43.61363" lon="3.8292">
        <ele>64.618294</ele>
        <time>2021-10-17T11:26:28Z</time>
      </trkpt>
      <trkpt lat="43.61334" lon="3.82908">
        <ele>63.752361</ele>
        <time>2021-10-17T11:26:38Z</time>
      </trkpt>
      <trkpt lat="43.61293" lon="3.82925">
        <ele>63.228107</ele>
        <time>2021-10-17T11:26:48Z</time>
      </trkpt>
      <trkpt lat="43.6124" lon="3.82948">
        <ele>63.004166</ele>
        <time>2021-10-17T11:26:58Z</time>
      </trkpt>
      <trkpt lat="43.612" lon="3.82945">
        <ele>63.532227</ele>
        <time>2021-10-17T11:27:08Z</time>
      </trkpt>
      <trkpt lat="43.61183" lon="3.82893">
        <ele>63.673828</ele>
        <time>2021-10-17T11:27:18Z</time>
      </trkpt>
      <trkpt lat="43.61155" lon="3.82876">
        <ele>63.926025</ele>
        <time>2021-10-17T11:27:28Z</time>
      </trkpt>
      <trkpt lat="43.61129" lon="3.82856">
        <ele>65.148758</ele>
        <time>2021-10-17T11:27:48Z</time>
      </trkpt>
      <trkpt lat="43.61095" lon="3.82835">
        <ele>67.310143</ele>
        <time>2021-10-17T11:28:08Z</time>
      </trkpt>
      <trkpt lat="43.61063" lon="3.82818">
        <ele>69.87133</ele>
        <time>2021-10-17T11:28:18Z</time>
      </trkpt>
      <trkpt lat="43.61037" lon="3.82803">
        <ele>71.979347</ele>
        <time>2021-10-17T11:28:28Z</time>
      </trkpt>
      <trkpt lat="43.61009" lon="3.82788">
        <ele>73.849541</ele>
        <time>2021-10-17T11:28:38Z</time>
      </trkpt>
      <trkpt lat="43.60985" lon="3.82777">
        <ele>74.722496</ele>
        <time>2021-10-17T11:28:48Z</time>
      </trkpt>
      <trkpt lat="43.60966" lon="3.82767">
        <ele>75.341797</ele>
        <time>2021-10-17T11:28:58Z</time>
      </trkpt>
      <trkpt lat="43.60946" lon="3.82758">
        <ele>75.88916</ele>
        <time>2021-10-17T11:29:08Z</time>
      </trkpt>
      <trkpt lat="43.60925" lon="3.82749">
        <ele>76.252197</ele>
        <time>2021-10-17T11:29:18Z</time>
      </trkpt>
      <trkpt lat="43.60898" lon="3.82749">
        <ele>76.559898</ele>
        <time>2021-10-17T11:29:28Z</time>
      </trkpt>
      <trkpt lat="43.60854" lon="3.82762">
        <ele>76.722778</ele>
        <time>2021-10-17T11:29:38Z</time>
      </trkpt>
      <trkpt lat="43.60802" lon="3.82779">
        <ele>75.021965</ele>
        <time>2021-10-17T11:29:48Z</time>
      </trkpt>
    </trkseg>
  </trk>
</gpx>